<?xml version="1.0" encoding="UTF-8" standalone="no" ?>
<gpx xmlns="http://www.topografix.com/GPX/1/1" xmlns:xsi="http://www.w3.org/2001/XMLSchema-instance" xsi:schemaLocation="http://www.topografix.com/GPX/1/1 http://www.topografix.com/GPX/1/1/gpx.xsd" version="1.1" creator="VisuGPX - https://www.visugpx.com">
  <metadata>
    <name>La Vizelle (73 Courchevel 1850)</name>
    <desc><![CDATA[Départ des Chalets de Pralong
Photos et commentaires sur : [url]www.photosrandos.fr[/url]]]></desc>
  </metadata>
  <trk>
    <name><![CDATA[4 déc. 2019 à 09:34:17]]></name>
    <cmt><![CDATA[4 déc. 2019 à 09:34:17]]></cmt>
    <trkseg>
      <trkpt lat="45.39995" lon="6.63558">
        <ele>1930</ele>
        <time>2019-12-04T08:34:17Z</time>
      </trkpt>
      <trkpt lat="45.39995" lon="6.63558">
        <ele>1929</ele>
        <time>2019-12-04T08:34:18Z</time>
      </trkpt>
      <trkpt lat="45.39998" lon="6.63564">
        <ele>1928</ele>
        <time>2019-12-04T08:35:17Z</time>
      </trkpt>
      <trkpt lat="45.40001" lon="6.63556">
        <ele>1928</ele>
        <time>2019-12-04T08:36:51Z</time>
      </trkpt>
      <trkpt lat="45.40003" lon="6.63564">
        <ele>1928</ele>
        <time>2019-12-04T08:37:28Z</time>
      </trkpt>
      <trkpt lat="45.40002" lon="6.6357">
        <ele>1928</ele>
        <time>2019-12-04T08:37:34Z</time>
      </trkpt>
      <trkpt lat="45.40001" lon="6.63567">
        <ele>1930</ele>
        <time>2019-12-04T08:38:31Z</time>
      </trkpt>
      <trkpt lat="45.39996" lon="6.63568">
        <ele>1933</ele>
        <time>2019-12-04T08:41:31Z</time>
      </trkpt>
      <trkpt lat="45.39991" lon="6.63569">
        <ele>1934</ele>
        <time>2019-12-04T08:41:41Z</time>
      </trkpt>
      <trkpt lat="45.39986" lon="6.63562">
        <ele>1934</ele>
        <time>2019-12-04T08:41:54Z</time>
      </trkpt>
      <trkpt lat="45.39985" lon="6.63556">
        <ele>1935</ele>
        <time>2019-12-04T08:41:59Z</time>
      </trkpt>
      <trkpt lat="45.39977" lon="6.63545">
        <ele>1936</ele>
        <time>2019-12-04T08:42:20Z</time>
      </trkpt>
      <trkpt lat="45.39968" lon="6.63546">
        <ele>1934</ele>
        <time>2019-12-04T08:43:17Z</time>
      </trkpt>
      <trkpt lat="45.39961" lon="6.63546">
        <ele>1933</ele>
        <time>2019-12-04T08:46:55Z</time>
      </trkpt>
      <trkpt lat="45.39955" lon="6.6355">
        <ele>1933</ele>
        <time>2019-12-04T08:47:07Z</time>
      </trkpt>
      <trkpt lat="45.39944" lon="6.63555">
        <ele>1934</ele>
        <time>2019-12-04T08:47:28Z</time>
      </trkpt>
      <trkpt lat="45.39939" lon="6.63553">
        <ele>1935</ele>
        <time>2019-12-04T08:47:41Z</time>
      </trkpt>
      <trkpt lat="45.39924" lon="6.63552">
        <ele>1937</ele>
        <time>2019-12-04T08:48:17Z</time>
      </trkpt>
      <trkpt lat="45.39915" lon="6.63545">
        <ele>1938</ele>
        <time>2019-12-04T08:48:25Z</time>
      </trkpt>
      <trkpt lat="45.39906" lon="6.63541">
        <ele>1938</ele>
        <time>2019-12-04T08:48:31Z</time>
      </trkpt>
      <trkpt lat="45.399" lon="6.63535">
        <ele>1942</ele>
        <time>2019-12-04T08:48:58Z</time>
      </trkpt>
      <trkpt lat="45.39896" lon="6.63532">
        <ele>1943</ele>
        <time>2019-12-04T08:49:04Z</time>
      </trkpt>
      <trkpt lat="45.39887" lon="6.63517">
        <ele>1949</ele>
        <time>2019-12-04T08:49:41Z</time>
      </trkpt>
      <trkpt lat="45.39878" lon="6.63504">
        <ele>1952</ele>
        <time>2019-12-04T08:50:12Z</time>
      </trkpt>
      <trkpt lat="45.39875" lon="6.63498">
        <ele>1953</ele>
        <time>2019-12-04T08:50:32Z</time>
      </trkpt>
      <trkpt lat="45.39872" lon="6.63484">
        <ele>1955</ele>
        <time>2019-12-04T08:50:46Z</time>
      </trkpt>
      <trkpt lat="45.39867" lon="6.63471">
        <ele>1956</ele>
        <time>2019-12-04T08:50:55Z</time>
      </trkpt>
      <trkpt lat="45.39865" lon="6.63463">
        <ele>1957</ele>
        <time>2019-12-04T08:51:02Z</time>
      </trkpt>
      <trkpt lat="45.39853" lon="6.63442">
        <ele>1964</ele>
        <time>2019-12-04T08:51:49Z</time>
      </trkpt>
      <trkpt lat="45.39842" lon="6.63415">
        <ele>1969</ele>
        <time>2019-12-04T08:52:30Z</time>
      </trkpt>
      <trkpt lat="45.39839" lon="6.6341">
        <ele>1969</ele>
        <time>2019-12-04T08:52:36Z</time>
      </trkpt>
      <trkpt lat="45.39833" lon="6.63402">
        <ele>1971</ele>
        <time>2019-12-04T08:52:54Z</time>
      </trkpt>
      <trkpt lat="45.39825" lon="6.63389">
        <ele>1973</ele>
        <time>2019-12-04T08:53:27Z</time>
      </trkpt>
      <trkpt lat="45.39813" lon="6.63369">
        <ele>1974</ele>
        <time>2019-12-04T08:53:53Z</time>
      </trkpt>
      <trkpt lat="45.39805" lon="6.63352">
        <ele>1977</ele>
        <time>2019-12-04T08:54:25Z</time>
      </trkpt>
      <trkpt lat="45.39803" lon="6.63345">
        <ele>1979</ele>
        <time>2019-12-04T08:54:37Z</time>
      </trkpt>
      <trkpt lat="45.39799" lon="6.6334">
        <ele>1979</ele>
        <time>2019-12-04T08:54:43Z</time>
      </trkpt>
      <trkpt lat="45.39796" lon="6.63336">
        <ele>1980</ele>
        <time>2019-12-04T08:54:46Z</time>
      </trkpt>
      <trkpt lat="45.39787" lon="6.63326">
        <ele>1983</ele>
        <time>2019-12-04T08:55:07Z</time>
      </trkpt>
      <trkpt lat="45.39778" lon="6.63304">
        <ele>1986</ele>
        <time>2019-12-04T08:55:40Z</time>
      </trkpt>
      <trkpt lat="45.39775" lon="6.63295">
        <ele>1988</ele>
        <time>2019-12-04T08:55:59Z</time>
      </trkpt>
      <trkpt lat="45.39769" lon="6.63288">
        <ele>1990</ele>
        <time>2019-12-04T08:56:22Z</time>
      </trkpt>
      <trkpt lat="45.39766" lon="6.63279">
        <ele>1992</ele>
        <time>2019-12-04T08:56:35Z</time>
      </trkpt>
      <trkpt lat="45.3976" lon="6.63273">
        <ele>1994</ele>
        <time>2019-12-04T08:56:47Z</time>
      </trkpt>
      <trkpt lat="45.39759" lon="6.63264">
        <ele>1995</ele>
        <time>2019-12-04T08:56:59Z</time>
      </trkpt>
      <trkpt lat="45.39755" lon="6.6325">
        <ele>2000</ele>
        <time>2019-12-04T08:57:24Z</time>
      </trkpt>
      <trkpt lat="45.3975" lon="6.63241">
        <ele>2001</ele>
        <time>2019-12-04T08:57:36Z</time>
      </trkpt>
      <trkpt lat="45.39744" lon="6.63237">
        <ele>2004</ele>
        <time>2019-12-04T08:57:50Z</time>
      </trkpt>
      <trkpt lat="45.39739" lon="6.63231">
        <ele>2006</ele>
        <time>2019-12-04T08:58:14Z</time>
      </trkpt>
      <trkpt lat="45.39735" lon="6.63228">
        <ele>2008</ele>
        <time>2019-12-04T08:58:26Z</time>
      </trkpt>
      <trkpt lat="45.39726" lon="6.63216">
        <ele>2009</ele>
        <time>2019-12-04T08:58:47Z</time>
      </trkpt>
      <trkpt lat="45.3972" lon="6.63209">
        <ele>2011</ele>
        <time>2019-12-04T08:58:58Z</time>
      </trkpt>
      <trkpt lat="45.39722" lon="6.63201">
        <ele>2013</ele>
        <time>2019-12-04T08:59:20Z</time>
      </trkpt>
      <trkpt lat="45.39718" lon="6.63181">
        <ele>2016</ele>
        <time>2019-12-04T09:00:03Z</time>
      </trkpt>
      <trkpt lat="45.39722" lon="6.63169">
        <ele>2017</ele>
        <time>2019-12-04T09:00:23Z</time>
      </trkpt>
      <trkpt lat="45.39721" lon="6.63159">
        <ele>2018</ele>
        <time>2019-12-04T09:00:47Z</time>
      </trkpt>
      <trkpt lat="45.3972" lon="6.63142">
        <ele>2020</ele>
        <time>2019-12-04T09:01:01Z</time>
      </trkpt>
      <trkpt lat="45.39717" lon="6.63129">
        <ele>2022</ele>
        <time>2019-12-04T09:01:21Z</time>
      </trkpt>
      <trkpt lat="45.39715" lon="6.63121">
        <ele>2023</ele>
        <time>2019-12-04T09:01:35Z</time>
      </trkpt>
      <trkpt lat="45.39702" lon="6.6312">
        <ele>2027</ele>
        <time>2019-12-04T09:02:09Z</time>
      </trkpt>
      <trkpt lat="45.39684" lon="6.63119">
        <ele>2032</ele>
        <time>2019-12-04T09:02:48Z</time>
      </trkpt>
      <trkpt lat="45.39679" lon="6.63121">
        <ele>2032</ele>
        <time>2019-12-04T09:02:56Z</time>
      </trkpt>
      <trkpt lat="45.39674" lon="6.63123">
        <ele>2033</ele>
        <time>2019-12-04T09:03:08Z</time>
      </trkpt>
      <trkpt lat="45.3967" lon="6.63118">
        <ele>2033</ele>
        <time>2019-12-04T09:03:12Z</time>
      </trkpt>
      <trkpt lat="45.39662" lon="6.63118">
        <ele>2034</ele>
        <time>2019-12-04T09:03:26Z</time>
      </trkpt>
      <trkpt lat="45.39657" lon="6.63115">
        <ele>2034</ele>
        <time>2019-12-04T09:03:36Z</time>
      </trkpt>
      <trkpt lat="45.39651" lon="6.63113">
        <ele>2034</ele>
        <time>2019-12-04T09:03:43Z</time>
      </trkpt>
      <trkpt lat="45.39645" lon="6.63118">
        <ele>2035</ele>
        <time>2019-12-04T09:04:00Z</time>
      </trkpt>
      <trkpt lat="45.39618" lon="6.63127">
        <ele>2038</ele>
        <time>2019-12-04T09:04:43Z</time>
      </trkpt>
      <trkpt lat="45.39613" lon="6.63129">
        <ele>2038</ele>
        <time>2019-12-04T09:04:49Z</time>
      </trkpt>
      <trkpt lat="45.39606" lon="6.6313">
        <ele>2040</ele>
        <time>2019-12-04T09:04:58Z</time>
      </trkpt>
      <trkpt lat="45.396" lon="6.63134">
        <ele>2041</ele>
        <time>2019-12-04T09:05:10Z</time>
      </trkpt>
      <trkpt lat="45.39594" lon="6.63138">
        <ele>2043</ele>
        <time>2019-12-04T09:05:29Z</time>
      </trkpt>
      <trkpt lat="45.39571" lon="6.63147">
        <ele>2045</ele>
        <time>2019-12-04T09:06:04Z</time>
      </trkpt>
      <trkpt lat="45.39558" lon="6.63148">
        <ele>2047</ele>
        <time>2019-12-04T09:06:20Z</time>
      </trkpt>
      <trkpt lat="45.39554" lon="6.63145">
        <ele>2047</ele>
        <time>2019-12-04T09:06:25Z</time>
      </trkpt>
      <trkpt lat="45.39549" lon="6.63144">
        <ele>2047</ele>
        <time>2019-12-04T09:06:33Z</time>
      </trkpt>
      <trkpt lat="45.39539" lon="6.63149">
        <ele>2048</ele>
        <time>2019-12-04T09:06:46Z</time>
      </trkpt>
      <trkpt lat="45.39535" lon="6.63149">
        <ele>2048</ele>
        <time>2019-12-04T09:06:58Z</time>
      </trkpt>
      <trkpt lat="45.3953" lon="6.63152">
        <ele>2049</ele>
        <time>2019-12-04T09:07:02Z</time>
      </trkpt>
      <trkpt lat="45.39519" lon="6.63153">
        <ele>2049</ele>
        <time>2019-12-04T09:07:18Z</time>
      </trkpt>
      <trkpt lat="45.39514" lon="6.63151">
        <ele>2049</ele>
        <time>2019-12-04T09:07:23Z</time>
      </trkpt>
      <trkpt lat="45.39488" lon="6.63151">
        <ele>2051</ele>
        <time>2019-12-04T09:07:49Z</time>
      </trkpt>
      <trkpt lat="45.39483" lon="6.63145">
        <ele>2052</ele>
        <time>2019-12-04T09:08:04Z</time>
      </trkpt>
      <trkpt lat="45.39477" lon="6.63144">
        <ele>2052</ele>
        <time>2019-12-04T09:08:08Z</time>
      </trkpt>
      <trkpt lat="45.3947" lon="6.63141">
        <ele>2052</ele>
        <time>2019-12-04T09:08:15Z</time>
      </trkpt>
      <trkpt lat="45.39462" lon="6.63143">
        <ele>2053</ele>
        <time>2019-12-04T09:08:28Z</time>
      </trkpt>
      <trkpt lat="45.39457" lon="6.63144">
        <ele>2054</ele>
        <time>2019-12-04T09:08:41Z</time>
      </trkpt>
      <trkpt lat="45.39452" lon="6.63138">
        <ele>2054</ele>
        <time>2019-12-04T09:08:53Z</time>
      </trkpt>
      <trkpt lat="45.39448" lon="6.63136">
        <ele>2054</ele>
        <time>2019-12-04T09:08:58Z</time>
      </trkpt>
      <trkpt lat="45.39434" lon="6.63135">
        <ele>2056</ele>
        <time>2019-12-04T09:09:16Z</time>
      </trkpt>
      <trkpt lat="45.3941" lon="6.63123">
        <ele>2057</ele>
        <time>2019-12-04T09:09:43Z</time>
      </trkpt>
      <trkpt lat="45.39401" lon="6.6312">
        <ele>2059</ele>
        <time>2019-12-04T09:10:06Z</time>
      </trkpt>
      <trkpt lat="45.39394" lon="6.6312">
        <ele>2061</ele>
        <time>2019-12-04T09:10:17Z</time>
      </trkpt>
      <trkpt lat="45.39387" lon="6.63114">
        <ele>2062</ele>
        <time>2019-12-04T09:10:28Z</time>
      </trkpt>
      <trkpt lat="45.39382" lon="6.63115">
        <ele>2063</ele>
        <time>2019-12-04T09:10:33Z</time>
      </trkpt>
      <trkpt lat="45.39367" lon="6.63114">
        <ele>2066</ele>
        <time>2019-12-04T09:11:02Z</time>
      </trkpt>
      <trkpt lat="45.39358" lon="6.63113">
        <ele>2067</ele>
        <time>2019-12-04T09:11:12Z</time>
      </trkpt>
      <trkpt lat="45.3935" lon="6.63114">
        <ele>2069</ele>
        <time>2019-12-04T09:11:22Z</time>
      </trkpt>
      <trkpt lat="45.39345" lon="6.63112">
        <ele>2070</ele>
        <time>2019-12-04T09:11:32Z</time>
      </trkpt>
      <trkpt lat="45.39339" lon="6.63111">
        <ele>2070</ele>
        <time>2019-12-04T09:11:38Z</time>
      </trkpt>
      <trkpt lat="45.39334" lon="6.6311">
        <ele>2070</ele>
        <time>2019-12-04T09:11:43Z</time>
      </trkpt>
      <trkpt lat="45.39324" lon="6.63105">
        <ele>2072</ele>
        <time>2019-12-04T09:12:03Z</time>
      </trkpt>
      <trkpt lat="45.39306" lon="6.63106">
        <ele>2074</ele>
        <time>2019-12-04T09:12:27Z</time>
      </trkpt>
      <trkpt lat="45.39299" lon="6.63108">
        <ele>2076</ele>
        <time>2019-12-04T09:12:51Z</time>
      </trkpt>
      <trkpt lat="45.39289" lon="6.63106">
        <ele>2077</ele>
        <time>2019-12-04T09:13:03Z</time>
      </trkpt>
      <trkpt lat="45.39284" lon="6.63106">
        <ele>2077</ele>
        <time>2019-12-04T09:13:08Z</time>
      </trkpt>
      <trkpt lat="45.39279" lon="6.63106">
        <ele>2077</ele>
        <time>2019-12-04T09:13:12Z</time>
      </trkpt>
      <trkpt lat="45.39274" lon="6.63106">
        <ele>2077</ele>
        <time>2019-12-04T09:13:20Z</time>
      </trkpt>
      <trkpt lat="45.39269" lon="6.63106">
        <ele>2078</ele>
        <time>2019-12-04T09:13:32Z</time>
      </trkpt>
      <trkpt lat="45.39264" lon="6.63107">
        <ele>2078</ele>
        <time>2019-12-04T09:13:38Z</time>
      </trkpt>
      <trkpt lat="45.39252" lon="6.63105">
        <ele>2079</ele>
        <time>2019-12-04T09:13:56Z</time>
      </trkpt>
      <trkpt lat="45.39247" lon="6.63105">
        <ele>2079</ele>
        <time>2019-12-04T09:14:01Z</time>
      </trkpt>
      <trkpt lat="45.39236" lon="6.63105">
        <ele>2080</ele>
        <time>2019-12-04T09:14:21Z</time>
      </trkpt>
      <trkpt lat="45.39231" lon="6.63104">
        <ele>2081</ele>
        <time>2019-12-04T09:14:27Z</time>
      </trkpt>
      <trkpt lat="45.39225" lon="6.63105">
        <ele>2081</ele>
        <time>2019-12-04T09:14:33Z</time>
      </trkpt>
      <trkpt lat="45.39219" lon="6.63104">
        <ele>2081</ele>
        <time>2019-12-04T09:14:40Z</time>
      </trkpt>
      <trkpt lat="45.39204" lon="6.631">
        <ele>2082</ele>
        <time>2019-12-04T09:15:05Z</time>
      </trkpt>
      <trkpt lat="45.39199" lon="6.63099">
        <ele>2082</ele>
        <time>2019-12-04T09:15:09Z</time>
      </trkpt>
      <trkpt lat="45.3918" lon="6.63094">
        <ele>2085</ele>
        <time>2019-12-04T09:15:42Z</time>
      </trkpt>
      <trkpt lat="45.39174" lon="6.63091">
        <ele>2085</ele>
        <time>2019-12-04T09:15:52Z</time>
      </trkpt>
      <trkpt lat="45.39165" lon="6.63082">
        <ele>2086</ele>
        <time>2019-12-04T09:16:16Z</time>
      </trkpt>
      <trkpt lat="45.39159" lon="6.63075">
        <ele>2087</ele>
        <time>2019-12-04T09:16:28Z</time>
      </trkpt>
      <trkpt lat="45.39153" lon="6.63069">
        <ele>2087</ele>
        <time>2019-12-04T09:16:40Z</time>
      </trkpt>
      <trkpt lat="45.39146" lon="6.63063">
        <ele>2088</ele>
        <time>2019-12-04T09:16:53Z</time>
      </trkpt>
      <trkpt lat="45.3914" lon="6.63056">
        <ele>2088</ele>
        <time>2019-12-04T09:17:05Z</time>
      </trkpt>
      <trkpt lat="45.39125" lon="6.63044">
        <ele>2089</ele>
        <time>2019-12-04T09:17:25Z</time>
      </trkpt>
      <trkpt lat="45.39111" lon="6.63033">
        <ele>2092</ele>
        <time>2019-12-04T09:18:00Z</time>
      </trkpt>
      <trkpt lat="45.39102" lon="6.63024">
        <ele>2094</ele>
        <time>2019-12-04T09:18:16Z</time>
      </trkpt>
      <trkpt lat="45.39097" lon="6.63022">
        <ele>2095</ele>
        <time>2019-12-04T09:18:26Z</time>
      </trkpt>
      <trkpt lat="45.39088" lon="6.63013">
        <ele>2095</ele>
        <time>2019-12-04T09:18:51Z</time>
      </trkpt>
      <trkpt lat="45.39081" lon="6.63004">
        <ele>2095</ele>
        <time>2019-12-04T09:19:03Z</time>
      </trkpt>
      <trkpt lat="45.3907" lon="6.62996">
        <ele>2096</ele>
        <time>2019-12-04T09:19:22Z</time>
      </trkpt>
      <trkpt lat="45.39065" lon="6.62992">
        <ele>2096</ele>
        <time>2019-12-04T09:19:26Z</time>
      </trkpt>
      <trkpt lat="45.39061" lon="6.62987">
        <ele>2096</ele>
        <time>2019-12-04T09:19:34Z</time>
      </trkpt>
      <trkpt lat="45.39056" lon="6.62979">
        <ele>2096</ele>
        <time>2019-12-04T09:19:46Z</time>
      </trkpt>
      <trkpt lat="45.39056" lon="6.62969">
        <ele>2097</ele>
        <time>2019-12-04T09:26:07Z</time>
      </trkpt>
      <trkpt lat="45.39045" lon="6.62946">
        <ele>2101</ele>
        <time>2019-12-04T09:26:43Z</time>
      </trkpt>
      <trkpt lat="45.39039" lon="6.62939">
        <ele>2102</ele>
        <time>2019-12-04T09:26:55Z</time>
      </trkpt>
      <trkpt lat="45.39036" lon="6.62932">
        <ele>2103</ele>
        <time>2019-12-04T09:27:07Z</time>
      </trkpt>
      <trkpt lat="45.39024" lon="6.62913">
        <ele>2106</ele>
        <time>2019-12-04T09:27:43Z</time>
      </trkpt>
      <trkpt lat="45.39018" lon="6.62897">
        <ele>2108</ele>
        <time>2019-12-04T09:28:13Z</time>
      </trkpt>
      <trkpt lat="45.39014" lon="6.62892">
        <ele>2109</ele>
        <time>2019-12-04T09:28:25Z</time>
      </trkpt>
      <trkpt lat="45.39009" lon="6.62885">
        <ele>2109</ele>
        <time>2019-12-04T09:28:37Z</time>
      </trkpt>
      <trkpt lat="45.39006" lon="6.62878">
        <ele>2109</ele>
        <time>2019-12-04T09:28:49Z</time>
      </trkpt>
      <trkpt lat="45.39001" lon="6.62872">
        <ele>2110</ele>
        <time>2019-12-04T09:29:01Z</time>
      </trkpt>
      <trkpt lat="45.38998" lon="6.62867">
        <ele>2111</ele>
        <time>2019-12-04T09:29:13Z</time>
      </trkpt>
      <trkpt lat="45.38987" lon="6.62846">
        <ele>2113</ele>
        <time>2019-12-04T09:29:55Z</time>
      </trkpt>
      <trkpt lat="45.38984" lon="6.6284">
        <ele>2114</ele>
        <time>2019-12-04T09:30:07Z</time>
      </trkpt>
      <trkpt lat="45.38981" lon="6.62834">
        <ele>2114</ele>
        <time>2019-12-04T09:30:19Z</time>
      </trkpt>
      <trkpt lat="45.38975" lon="6.62813">
        <ele>2117</ele>
        <time>2019-12-04T09:31:01Z</time>
      </trkpt>
      <trkpt lat="45.3897" lon="6.62806">
        <ele>2117</ele>
        <time>2019-12-04T09:31:19Z</time>
      </trkpt>
      <trkpt lat="45.38963" lon="6.628">
        <ele>2118</ele>
        <time>2019-12-04T09:31:37Z</time>
      </trkpt>
      <trkpt lat="45.38958" lon="6.62795">
        <ele>2119</ele>
        <time>2019-12-04T09:32:25Z</time>
      </trkpt>
      <trkpt lat="45.38953" lon="6.62789">
        <ele>2120</ele>
        <time>2019-12-04T09:32:36Z</time>
      </trkpt>
      <trkpt lat="45.38945" lon="6.62782">
        <ele>2122</ele>
        <time>2019-12-04T09:33:06Z</time>
      </trkpt>
      <trkpt lat="45.38944" lon="6.62772">
        <ele>2124</ele>
        <time>2019-12-04T09:33:22Z</time>
      </trkpt>
      <trkpt lat="45.38942" lon="6.62765">
        <ele>2125</ele>
        <time>2019-12-04T09:33:40Z</time>
      </trkpt>
      <trkpt lat="45.3893" lon="6.62748">
        <ele>2129</ele>
        <time>2019-12-04T09:34:31Z</time>
      </trkpt>
      <trkpt lat="45.38926" lon="6.62742">
        <ele>2131</ele>
        <time>2019-12-04T09:34:43Z</time>
      </trkpt>
      <trkpt lat="45.38924" lon="6.62735">
        <ele>2132</ele>
        <time>2019-12-04T09:34:55Z</time>
      </trkpt>
      <trkpt lat="45.38917" lon="6.62725">
        <ele>2132</ele>
        <time>2019-12-04T09:35:07Z</time>
      </trkpt>
      <trkpt lat="45.38914" lon="6.6272">
        <ele>2132</ele>
        <time>2019-12-04T09:35:12Z</time>
      </trkpt>
      <trkpt lat="45.38909" lon="6.62715">
        <ele>2132</ele>
        <time>2019-12-04T09:35:26Z</time>
      </trkpt>
      <trkpt lat="45.38893" lon="6.62698">
        <ele>2137</ele>
        <time>2019-12-04T09:36:14Z</time>
      </trkpt>
      <trkpt lat="45.38889" lon="6.62693">
        <ele>2138</ele>
        <time>2019-12-04T09:36:32Z</time>
      </trkpt>
      <trkpt lat="45.38882" lon="6.62687">
        <ele>2138</ele>
        <time>2019-12-04T09:36:43Z</time>
      </trkpt>
      <trkpt lat="45.38877" lon="6.62682">
        <ele>2139</ele>
        <time>2019-12-04T09:36:53Z</time>
      </trkpt>
      <trkpt lat="45.38874" lon="6.62678">
        <ele>2140</ele>
        <time>2019-12-04T09:37:05Z</time>
      </trkpt>
      <trkpt lat="45.38863" lon="6.62674">
        <ele>2144</ele>
        <time>2019-12-04T09:37:41Z</time>
      </trkpt>
      <trkpt lat="45.38856" lon="6.6267">
        <ele>2144</ele>
        <time>2019-12-04T09:37:54Z</time>
      </trkpt>
      <trkpt lat="45.38842" lon="6.62666">
        <ele>2147</ele>
        <time>2019-12-04T09:38:18Z</time>
      </trkpt>
      <trkpt lat="45.38838" lon="6.62662">
        <ele>2147</ele>
        <time>2019-12-04T09:38:32Z</time>
      </trkpt>
      <trkpt lat="45.38835" lon="6.62658">
        <ele>2149</ele>
        <time>2019-12-04T09:38:44Z</time>
      </trkpt>
      <trkpt lat="45.3883" lon="6.62652">
        <ele>2150</ele>
        <time>2019-12-04T09:38:56Z</time>
      </trkpt>
      <trkpt lat="45.38825" lon="6.62655">
        <ele>2152</ele>
        <time>2019-12-04T09:39:14Z</time>
      </trkpt>
      <trkpt lat="45.38821" lon="6.62662">
        <ele>2154</ele>
        <time>2019-12-04T09:39:54Z</time>
      </trkpt>
      <trkpt lat="45.38816" lon="6.6267">
        <ele>2156</ele>
        <time>2019-12-04T09:40:09Z</time>
      </trkpt>
      <trkpt lat="45.38813" lon="6.62676">
        <ele>2158</ele>
        <time>2019-12-04T09:40:19Z</time>
      </trkpt>
      <trkpt lat="45.3881" lon="6.62682">
        <ele>2160</ele>
        <time>2019-12-04T09:40:36Z</time>
      </trkpt>
      <trkpt lat="45.38804" lon="6.62687">
        <ele>2163</ele>
        <time>2019-12-04T09:41:06Z</time>
      </trkpt>
      <trkpt lat="45.38797" lon="6.62681">
        <ele>2164</ele>
        <time>2019-12-04T09:41:18Z</time>
      </trkpt>
      <trkpt lat="45.38792" lon="6.62675">
        <ele>2166</ele>
        <time>2019-12-04T09:41:30Z</time>
      </trkpt>
      <trkpt lat="45.38786" lon="6.62666">
        <ele>2169</ele>
        <time>2019-12-04T09:42:00Z</time>
      </trkpt>
      <trkpt lat="45.38782" lon="6.62668">
        <ele>2171</ele>
        <time>2019-12-04T09:42:18Z</time>
      </trkpt>
      <trkpt lat="45.38777" lon="6.62683">
        <ele>2175</ele>
        <time>2019-12-04T09:42:48Z</time>
      </trkpt>
      <trkpt lat="45.38776" lon="6.62688">
        <ele>2178</ele>
        <time>2019-12-04T09:43:18Z</time>
      </trkpt>
      <trkpt lat="45.38768" lon="6.62676">
        <ele>2181</ele>
        <time>2019-12-04T09:43:42Z</time>
      </trkpt>
      <trkpt lat="45.38763" lon="6.62671">
        <ele>2181</ele>
        <time>2019-12-04T09:43:54Z</time>
      </trkpt>
      <trkpt lat="45.38761" lon="6.62663">
        <ele>2183</ele>
        <time>2019-12-04T09:44:12Z</time>
      </trkpt>
      <trkpt lat="45.3876" lon="6.62656">
        <ele>2184</ele>
        <time>2019-12-04T09:44:24Z</time>
      </trkpt>
      <trkpt lat="45.38755" lon="6.62655">
        <ele>2186</ele>
        <time>2019-12-04T09:44:36Z</time>
      </trkpt>
      <trkpt lat="45.3875" lon="6.62657">
        <ele>2188</ele>
        <time>2019-12-04T09:44:54Z</time>
      </trkpt>
      <trkpt lat="45.38746" lon="6.62664">
        <ele>2191</ele>
        <time>2019-12-04T09:45:24Z</time>
      </trkpt>
      <trkpt lat="45.38741" lon="6.62669">
        <ele>2193</ele>
        <time>2019-12-04T09:45:36Z</time>
      </trkpt>
      <trkpt lat="45.38732" lon="6.62658">
        <ele>2195</ele>
        <time>2019-12-04T09:46:06Z</time>
      </trkpt>
      <trkpt lat="45.38729" lon="6.62644">
        <ele>2198</ele>
        <time>2019-12-04T09:46:36Z</time>
      </trkpt>
      <trkpt lat="45.38727" lon="6.62635">
        <ele>2201</ele>
        <time>2019-12-04T09:46:54Z</time>
      </trkpt>
      <trkpt lat="45.38725" lon="6.62629">
        <ele>2203</ele>
        <time>2019-12-04T09:47:14Z</time>
      </trkpt>
      <trkpt lat="45.38719" lon="6.62628">
        <ele>2205</ele>
        <time>2019-12-04T09:47:24Z</time>
      </trkpt>
      <trkpt lat="45.38716" lon="6.62636">
        <ele>2209</ele>
        <time>2019-12-04T09:48:03Z</time>
      </trkpt>
      <trkpt lat="45.38711" lon="6.62639">
        <ele>2211</ele>
        <time>2019-12-04T09:48:21Z</time>
      </trkpt>
      <trkpt lat="45.38705" lon="6.62644">
        <ele>2213</ele>
        <time>2019-12-04T09:48:45Z</time>
      </trkpt>
      <trkpt lat="45.38701" lon="6.62639">
        <ele>2216</ele>
        <time>2019-12-04T09:49:03Z</time>
      </trkpt>
      <trkpt lat="45.38697" lon="6.62632">
        <ele>2216</ele>
        <time>2019-12-04T09:49:15Z</time>
      </trkpt>
      <trkpt lat="45.38693" lon="6.62626">
        <ele>2218</ele>
        <time>2019-12-04T09:49:33Z</time>
      </trkpt>
      <trkpt lat="45.38691" lon="6.62611">
        <ele>2221</ele>
        <time>2019-12-04T09:50:03Z</time>
      </trkpt>
      <trkpt lat="45.38688" lon="6.62604">
        <ele>2223</ele>
        <time>2019-12-04T09:50:21Z</time>
      </trkpt>
      <trkpt lat="45.38684" lon="6.62612">
        <ele>2225</ele>
        <time>2019-12-04T09:50:39Z</time>
      </trkpt>
      <trkpt lat="45.38674" lon="6.62609">
        <ele>2228</ele>
        <time>2019-12-04T09:51:13Z</time>
      </trkpt>
      <trkpt lat="45.3867" lon="6.62578">
        <ele>2234</ele>
        <time>2019-12-04T09:52:08Z</time>
      </trkpt>
      <trkpt lat="45.38671" lon="6.62571">
        <ele>2235</ele>
        <time>2019-12-04T09:52:26Z</time>
      </trkpt>
      <trkpt lat="45.38667" lon="6.62564">
        <ele>2238</ele>
        <time>2019-12-04T09:52:56Z</time>
      </trkpt>
      <trkpt lat="45.38662" lon="6.62569">
        <ele>2240</ele>
        <time>2019-12-04T09:53:08Z</time>
      </trkpt>
      <trkpt lat="45.38654" lon="6.62563">
        <ele>2242</ele>
        <time>2019-12-04T09:53:32Z</time>
      </trkpt>
      <trkpt lat="45.38651" lon="6.62557">
        <ele>2243</ele>
        <time>2019-12-04T09:53:44Z</time>
      </trkpt>
      <trkpt lat="45.3865" lon="6.62551">
        <ele>2244</ele>
        <time>2019-12-04T09:53:56Z</time>
      </trkpt>
      <trkpt lat="45.38648" lon="6.62545">
        <ele>2245</ele>
        <time>2019-12-04T09:54:07Z</time>
      </trkpt>
      <trkpt lat="45.38648" lon="6.62538">
        <ele>2245</ele>
        <time>2019-12-04T09:54:17Z</time>
      </trkpt>
      <trkpt lat="45.38645" lon="6.62527">
        <ele>2248</ele>
        <time>2019-12-04T09:54:39Z</time>
      </trkpt>
      <trkpt lat="45.38645" lon="6.6251">
        <ele>2251</ele>
        <time>2019-12-04T09:55:20Z</time>
      </trkpt>
      <trkpt lat="45.38646" lon="6.62495">
        <ele>2254</ele>
        <time>2019-12-04T09:56:09Z</time>
      </trkpt>
      <trkpt lat="45.38634" lon="6.62493">
        <ele>2260</ele>
        <time>2019-12-04T09:57:28Z</time>
      </trkpt>
      <trkpt lat="45.38626" lon="6.62495">
        <ele>2264</ele>
        <time>2019-12-04T09:58:28Z</time>
      </trkpt>
      <trkpt lat="45.38619" lon="6.62469">
        <ele>2270</ele>
        <time>2019-12-04T09:59:34Z</time>
      </trkpt>
      <trkpt lat="45.38621" lon="6.62463">
        <ele>2274</ele>
        <time>2019-12-04T10:00:10Z</time>
      </trkpt>
      <trkpt lat="45.38618" lon="6.62456">
        <ele>2275</ele>
        <time>2019-12-04T10:00:21Z</time>
      </trkpt>
      <trkpt lat="45.3862" lon="6.62449">
        <ele>2276</ele>
        <time>2019-12-04T10:00:30Z</time>
      </trkpt>
      <trkpt lat="45.38622" lon="6.62442">
        <ele>2278</ele>
        <time>2019-12-04T10:00:43Z</time>
      </trkpt>
      <trkpt lat="45.38622" lon="6.62432">
        <ele>2281</ele>
        <time>2019-12-04T10:01:28Z</time>
      </trkpt>
      <trkpt lat="45.38618" lon="6.6243">
        <ele>2286</ele>
        <time>2019-12-04T10:03:05Z</time>
      </trkpt>
      <trkpt lat="45.38605" lon="6.62432">
        <ele>2289</ele>
        <time>2019-12-04T10:03:29Z</time>
      </trkpt>
      <trkpt lat="45.38596" lon="6.62422">
        <ele>2293</ele>
        <time>2019-12-04T10:04:05Z</time>
      </trkpt>
      <trkpt lat="45.38597" lon="6.62408">
        <ele>2301</ele>
        <time>2019-12-04T10:05:11Z</time>
      </trkpt>
      <trkpt lat="45.38592" lon="6.62403">
        <ele>2303</ele>
        <time>2019-12-04T10:05:28Z</time>
      </trkpt>
      <trkpt lat="45.38581" lon="6.62406">
        <ele>2307</ele>
        <time>2019-12-04T10:05:59Z</time>
      </trkpt>
      <trkpt lat="45.38566" lon="6.62404">
        <ele>2310</ele>
        <time>2019-12-04T10:06:34Z</time>
      </trkpt>
      <trkpt lat="45.38559" lon="6.62395">
        <ele>2312</ele>
        <time>2019-12-04T10:06:55Z</time>
      </trkpt>
      <trkpt lat="45.38559" lon="6.62382">
        <ele>2315</ele>
        <time>2019-12-04T10:07:19Z</time>
      </trkpt>
      <trkpt lat="45.38553" lon="6.62382">
        <ele>2321</ele>
        <time>2019-12-04T10:08:07Z</time>
      </trkpt>
      <trkpt lat="45.38548" lon="6.62379">
        <ele>2321</ele>
        <time>2019-12-04T10:08:12Z</time>
      </trkpt>
      <trkpt lat="45.38541" lon="6.62365">
        <ele>2323</ele>
        <time>2019-12-04T10:08:31Z</time>
      </trkpt>
      <trkpt lat="45.38545" lon="6.62351">
        <ele>2327</ele>
        <time>2019-12-04T10:09:08Z</time>
      </trkpt>
      <trkpt lat="45.38548" lon="6.62339">
        <ele>2330</ele>
        <time>2019-12-04T10:09:32Z</time>
      </trkpt>
      <trkpt lat="45.38537" lon="6.62338">
        <ele>2336</ele>
        <time>2019-12-04T10:10:33Z</time>
      </trkpt>
      <trkpt lat="45.38526" lon="6.62338">
        <ele>2339</ele>
        <time>2019-12-04T10:11:04Z</time>
      </trkpt>
      <trkpt lat="45.38515" lon="6.62338">
        <ele>2343</ele>
        <time>2019-12-04T10:11:46Z</time>
      </trkpt>
      <trkpt lat="45.38502" lon="6.6234">
        <ele>2345</ele>
        <time>2019-12-04T10:12:07Z</time>
      </trkpt>
      <trkpt lat="45.38493" lon="6.62335">
        <ele>2347</ele>
        <time>2019-12-04T10:12:27Z</time>
      </trkpt>
      <trkpt lat="45.38498" lon="6.62321">
        <ele>2349</ele>
        <time>2019-12-04T10:12:51Z</time>
      </trkpt>
      <trkpt lat="45.385" lon="6.62306">
        <ele>2353</ele>
        <time>2019-12-04T10:13:33Z</time>
      </trkpt>
      <trkpt lat="45.38501" lon="6.62292">
        <ele>2359</ele>
        <time>2019-12-04T10:14:22Z</time>
      </trkpt>
      <trkpt lat="45.38509" lon="6.62283">
        <ele>2361</ele>
        <time>2019-12-04T10:14:46Z</time>
      </trkpt>
      <trkpt lat="45.38516" lon="6.62258">
        <ele>2365</ele>
        <time>2019-12-04T10:15:22Z</time>
      </trkpt>
      <trkpt lat="45.38524" lon="6.62248">
        <ele>2369</ele>
        <time>2019-12-04T10:16:00Z</time>
      </trkpt>
      <trkpt lat="45.38523" lon="6.62242">
        <ele>2369</ele>
        <time>2019-12-04T10:16:11Z</time>
      </trkpt>
      <trkpt lat="45.3852" lon="6.62236">
        <ele>2370</ele>
        <time>2019-12-04T10:22:09Z</time>
      </trkpt>
      <trkpt lat="45.38515" lon="6.62234">
        <ele>2371</ele>
        <time>2019-12-04T10:22:21Z</time>
      </trkpt>
      <trkpt lat="45.38514" lon="6.62227">
        <ele>2373</ele>
        <time>2019-12-04T10:23:11Z</time>
      </trkpt>
      <trkpt lat="45.38506" lon="6.62227">
        <ele>2376</ele>
        <time>2019-12-04T10:23:37Z</time>
      </trkpt>
      <trkpt lat="45.38501" lon="6.62224">
        <ele>2378</ele>
        <time>2019-12-04T10:23:49Z</time>
      </trkpt>
      <trkpt lat="45.38488" lon="6.62214">
        <ele>2380</ele>
        <time>2019-12-04T10:24:13Z</time>
      </trkpt>
      <trkpt lat="45.38481" lon="6.62208">
        <ele>2381</ele>
        <time>2019-12-04T10:24:25Z</time>
      </trkpt>
      <trkpt lat="45.38475" lon="6.62204">
        <ele>2382</ele>
        <time>2019-12-04T10:24:37Z</time>
      </trkpt>
      <trkpt lat="45.3847" lon="6.62201">
        <ele>2384</ele>
        <time>2019-12-04T10:24:49Z</time>
      </trkpt>
      <trkpt lat="45.38463" lon="6.622">
        <ele>2386</ele>
        <time>2019-12-04T10:25:07Z</time>
      </trkpt>
      <trkpt lat="45.38449" lon="6.62197">
        <ele>2387</ele>
        <time>2019-12-04T10:25:31Z</time>
      </trkpt>
      <trkpt lat="45.38442" lon="6.62197">
        <ele>2390</ele>
        <time>2019-12-04T10:25:49Z</time>
      </trkpt>
      <trkpt lat="45.38426" lon="6.62206">
        <ele>2394</ele>
        <time>2019-12-04T10:26:31Z</time>
      </trkpt>
      <trkpt lat="45.38421" lon="6.62212">
        <ele>2394</ele>
        <time>2019-12-04T10:26:43Z</time>
      </trkpt>
      <trkpt lat="45.38417" lon="6.62217">
        <ele>2395</ele>
        <time>2019-12-04T10:26:55Z</time>
      </trkpt>
      <trkpt lat="45.38409" lon="6.62242">
        <ele>2398</ele>
        <time>2019-12-04T10:27:31Z</time>
      </trkpt>
      <trkpt lat="45.38405" lon="6.6226">
        <ele>2401</ele>
        <time>2019-12-04T10:27:55Z</time>
      </trkpt>
      <trkpt lat="45.38402" lon="6.62267">
        <ele>2403</ele>
        <time>2019-12-04T10:28:07Z</time>
      </trkpt>
      <trkpt lat="45.3839" lon="6.62287">
        <ele>2407</ele>
        <time>2019-12-04T10:28:43Z</time>
      </trkpt>
      <trkpt lat="45.38387" lon="6.62293">
        <ele>2408</ele>
        <time>2019-12-04T10:28:55Z</time>
      </trkpt>
      <trkpt lat="45.38377" lon="6.62302">
        <ele>2410</ele>
        <time>2019-12-04T10:29:19Z</time>
      </trkpt>
      <trkpt lat="45.38373" lon="6.62305">
        <ele>2411</ele>
        <time>2019-12-04T10:29:37Z</time>
      </trkpt>
      <trkpt lat="45.38368" lon="6.62302">
        <ele>2413</ele>
        <time>2019-12-04T10:30:01Z</time>
      </trkpt>
      <trkpt lat="45.38366" lon="6.62296">
        <ele>2415</ele>
        <time>2019-12-04T10:30:16Z</time>
      </trkpt>
      <trkpt lat="45.38362" lon="6.62293">
        <ele>2416</ele>
        <time>2019-12-04T10:30:26Z</time>
      </trkpt>
      <trkpt lat="45.38351" lon="6.62284">
        <ele>2418</ele>
        <time>2019-12-04T10:30:47Z</time>
      </trkpt>
      <trkpt lat="45.38349" lon="6.62263">
        <ele>2423</ele>
        <time>2019-12-04T10:31:29Z</time>
      </trkpt>
      <trkpt lat="45.38349" lon="6.62256">
        <ele>2424</ele>
        <time>2019-12-04T10:31:41Z</time>
      </trkpt>
      <trkpt lat="45.38339" lon="6.62243">
        <ele>2428</ele>
        <time>2019-12-04T10:32:11Z</time>
      </trkpt>
      <trkpt lat="45.38334" lon="6.62243">
        <ele>2429</ele>
        <time>2019-12-04T10:32:23Z</time>
      </trkpt>
      <trkpt lat="45.38328" lon="6.62241">
        <ele>2431</ele>
        <time>2019-12-04T10:32:35Z</time>
      </trkpt>
      <trkpt lat="45.38322" lon="6.62237">
        <ele>2433</ele>
        <time>2019-12-04T10:32:47Z</time>
      </trkpt>
      <trkpt lat="45.38321" lon="6.6223">
        <ele>2436</ele>
        <time>2019-12-04T10:33:17Z</time>
      </trkpt>
      <trkpt lat="45.38325" lon="6.62225">
        <ele>2437</ele>
        <time>2019-12-04T10:33:29Z</time>
      </trkpt>
      <trkpt lat="45.38326" lon="6.62217">
        <ele>2439</ele>
        <time>2019-12-04T10:33:41Z</time>
      </trkpt>
      <trkpt lat="45.38328" lon="6.6221">
        <ele>2442</ele>
        <time>2019-12-04T10:34:11Z</time>
      </trkpt>
      <trkpt lat="45.38322" lon="6.62208">
        <ele>2444</ele>
        <time>2019-12-04T10:34:29Z</time>
      </trkpt>
      <trkpt lat="45.38319" lon="6.62202">
        <ele>2445</ele>
        <time>2019-12-04T10:34:41Z</time>
      </trkpt>
      <trkpt lat="45.38306" lon="6.62205">
        <ele>2450</ele>
        <time>2019-12-04T10:35:17Z</time>
      </trkpt>
      <trkpt lat="45.38299" lon="6.62205">
        <ele>2452</ele>
        <time>2019-12-04T10:35:35Z</time>
      </trkpt>
      <trkpt lat="45.38303" lon="6.62186">
        <ele>2456</ele>
        <time>2019-12-04T10:36:23Z</time>
      </trkpt>
      <trkpt lat="45.38306" lon="6.62181">
        <ele>2458</ele>
        <time>2019-12-04T10:36:35Z</time>
      </trkpt>
      <trkpt lat="45.38301" lon="6.62179">
        <ele>2460</ele>
        <time>2019-12-04T10:36:59Z</time>
      </trkpt>
      <trkpt lat="45.38296" lon="6.62178">
        <ele>2463</ele>
        <time>2019-12-04T10:37:21Z</time>
      </trkpt>
      <trkpt lat="45.38292" lon="6.62175">
        <ele>2464</ele>
        <time>2019-12-04T10:37:36Z</time>
      </trkpt>
      <trkpt lat="45.38285" lon="6.62175">
        <ele>2467</ele>
        <time>2019-12-04T10:37:56Z</time>
      </trkpt>
      <trkpt lat="45.38275" lon="6.62179">
        <ele>2470</ele>
        <time>2019-12-04T10:38:20Z</time>
      </trkpt>
      <trkpt lat="45.38276" lon="6.62172">
        <ele>2471</ele>
        <time>2019-12-04T10:38:38Z</time>
      </trkpt>
      <trkpt lat="45.3828" lon="6.62167">
        <ele>2473</ele>
        <time>2019-12-04T10:39:02Z</time>
      </trkpt>
      <trkpt lat="45.38281" lon="6.6216">
        <ele>2473</ele>
        <time>2019-12-04T10:39:08Z</time>
      </trkpt>
      <trkpt lat="45.38285" lon="6.62154">
        <ele>2476</ele>
        <time>2019-12-04T10:39:26Z</time>
      </trkpt>
      <trkpt lat="45.38282" lon="6.62148">
        <ele>2478</ele>
        <time>2019-12-04T10:39:50Z</time>
      </trkpt>
      <trkpt lat="45.38264" lon="6.62148">
        <ele>2485</ele>
        <time>2019-12-04T10:40:44Z</time>
      </trkpt>
      <trkpt lat="45.38257" lon="6.62152">
        <ele>2485</ele>
        <time>2019-12-04T10:40:56Z</time>
      </trkpt>
      <trkpt lat="45.38252" lon="6.62154">
        <ele>2489</ele>
        <time>2019-12-04T10:41:08Z</time>
      </trkpt>
      <trkpt lat="45.38249" lon="6.62149">
        <ele>2492</ele>
        <time>2019-12-04T10:41:32Z</time>
      </trkpt>
      <trkpt lat="45.38246" lon="6.62133">
        <ele>2496</ele>
        <time>2019-12-04T10:42:08Z</time>
      </trkpt>
      <trkpt lat="45.38245" lon="6.62121">
        <ele>2498</ele>
        <time>2019-12-04T10:42:26Z</time>
      </trkpt>
      <trkpt lat="45.38245" lon="6.62101">
        <ele>2501</ele>
        <time>2019-12-04T10:42:50Z</time>
      </trkpt>
      <trkpt lat="45.38245" lon="6.62092">
        <ele>2502</ele>
        <time>2019-12-04T10:43:02Z</time>
      </trkpt>
      <trkpt lat="45.38229" lon="6.62094">
        <ele>2507</ele>
        <time>2019-12-04T10:43:50Z</time>
      </trkpt>
      <trkpt lat="45.38217" lon="6.62108">
        <ele>2511</ele>
        <time>2019-12-04T10:44:30Z</time>
      </trkpt>
      <trkpt lat="45.38216" lon="6.62099">
        <ele>2511</ele>
        <time>2019-12-04T10:44:45Z</time>
      </trkpt>
      <trkpt lat="45.38216" lon="6.62081">
        <ele>2514</ele>
        <time>2019-12-04T10:45:18Z</time>
      </trkpt>
      <trkpt lat="45.38219" lon="6.62073">
        <ele>2516</ele>
        <time>2019-12-04T10:45:30Z</time>
      </trkpt>
      <trkpt lat="45.38212" lon="6.62072">
        <ele>2519</ele>
        <time>2019-12-04T10:46:24Z</time>
      </trkpt>
      <trkpt lat="45.38207" lon="6.62073">
        <ele>2521</ele>
        <time>2019-12-04T10:46:36Z</time>
      </trkpt>
      <trkpt lat="45.38202" lon="6.62072">
        <ele>2522</ele>
        <time>2019-12-04T10:46:54Z</time>
      </trkpt>
      <trkpt lat="45.38203" lon="6.62065">
        <ele>2525</ele>
        <time>2019-12-04T10:47:13Z</time>
      </trkpt>
      <trkpt lat="45.38203" lon="6.62058">
        <ele>2525</ele>
        <time>2019-12-04T10:47:19Z</time>
      </trkpt>
      <trkpt lat="45.38203" lon="6.62052">
        <ele>2527</ele>
        <time>2019-12-04T10:47:31Z</time>
      </trkpt>
      <trkpt lat="45.38205" lon="6.62044">
        <ele>2528</ele>
        <time>2019-12-04T10:47:43Z</time>
      </trkpt>
      <trkpt lat="45.38208" lon="6.62038">
        <ele>2530</ele>
        <time>2019-12-04T10:47:55Z</time>
      </trkpt>
      <trkpt lat="45.38212" lon="6.62017">
        <ele>2535</ele>
        <time>2019-12-04T10:48:37Z</time>
      </trkpt>
      <trkpt lat="45.38213" lon="6.62004">
        <ele>2539</ele>
        <time>2019-12-04T10:49:07Z</time>
      </trkpt>
      <trkpt lat="45.38209" lon="6.61999">
        <ele>2543</ele>
        <time>2019-12-04T10:57:10Z</time>
      </trkpt>
      <trkpt lat="45.38205" lon="6.61981">
        <ele>2546</ele>
        <time>2019-12-04T10:57:46Z</time>
      </trkpt>
      <trkpt lat="45.38201" lon="6.61974">
        <ele>2548</ele>
        <time>2019-12-04T10:57:58Z</time>
      </trkpt>
      <trkpt lat="45.38194" lon="6.61959">
        <ele>2552</ele>
        <time>2019-12-04T10:58:40Z</time>
      </trkpt>
      <trkpt lat="45.38195" lon="6.61953">
        <ele>2553</ele>
        <time>2019-12-04T10:58:51Z</time>
      </trkpt>
      <trkpt lat="45.3819" lon="6.61949">
        <ele>2555</ele>
        <time>2019-12-04T10:59:06Z</time>
      </trkpt>
      <trkpt lat="45.38185" lon="6.61946">
        <ele>2556</ele>
        <time>2019-12-04T10:59:16Z</time>
      </trkpt>
      <trkpt lat="45.38177" lon="6.61947">
        <ele>2558</ele>
        <time>2019-12-04T10:59:32Z</time>
      </trkpt>
      <trkpt lat="45.38166" lon="6.61938">
        <ele>2562</ele>
        <time>2019-12-04T11:00:02Z</time>
      </trkpt>
      <trkpt lat="45.38161" lon="6.61932">
        <ele>2564</ele>
        <time>2019-12-04T11:00:20Z</time>
      </trkpt>
      <trkpt lat="45.38156" lon="6.61923">
        <ele>2565</ele>
        <time>2019-12-04T11:00:50Z</time>
      </trkpt>
      <trkpt lat="45.38152" lon="6.61916">
        <ele>2567</ele>
        <time>2019-12-04T11:01:02Z</time>
      </trkpt>
      <trkpt lat="45.38149" lon="6.6191">
        <ele>2569</ele>
        <time>2019-12-04T11:01:14Z</time>
      </trkpt>
      <trkpt lat="45.38147" lon="6.61901">
        <ele>2571</ele>
        <time>2019-12-04T11:01:32Z</time>
      </trkpt>
      <trkpt lat="45.3815" lon="6.61893">
        <ele>2573</ele>
        <time>2019-12-04T11:01:44Z</time>
      </trkpt>
      <trkpt lat="45.38154" lon="6.61888">
        <ele>2574</ele>
        <time>2019-12-04T11:01:56Z</time>
      </trkpt>
      <trkpt lat="45.38157" lon="6.61879">
        <ele>2576</ele>
        <time>2019-12-04T11:02:08Z</time>
      </trkpt>
      <trkpt lat="45.38159" lon="6.61868">
        <ele>2577</ele>
        <time>2019-12-04T11:02:20Z</time>
      </trkpt>
      <trkpt lat="45.38158" lon="6.61851">
        <ele>2582</ele>
        <time>2019-12-04T11:02:56Z</time>
      </trkpt>
      <trkpt lat="45.38159" lon="6.61832">
        <ele>2586</ele>
        <time>2019-12-04T11:03:39Z</time>
      </trkpt>
      <trkpt lat="45.38158" lon="6.6181">
        <ele>2591</ele>
        <time>2019-12-04T11:04:21Z</time>
      </trkpt>
      <trkpt lat="45.38159" lon="6.61786">
        <ele>2598</ele>
        <time>2019-12-04T11:05:15Z</time>
      </trkpt>
      <trkpt lat="45.38161" lon="6.61778">
        <ele>2600</ele>
        <time>2019-12-04T11:05:33Z</time>
      </trkpt>
      <trkpt lat="45.38159" lon="6.6177">
        <ele>2603</ele>
        <time>2019-12-04T11:05:51Z</time>
      </trkpt>
      <trkpt lat="45.38155" lon="6.61762">
        <ele>2605</ele>
        <time>2019-12-04T11:06:12Z</time>
      </trkpt>
      <trkpt lat="45.38152" lon="6.61756">
        <ele>2607</ele>
        <time>2019-12-04T11:06:27Z</time>
      </trkpt>
      <trkpt lat="45.38154" lon="6.61741">
        <ele>2610</ele>
        <time>2019-12-04T11:06:55Z</time>
      </trkpt>
      <trkpt lat="45.38154" lon="6.61733">
        <ele>2614</ele>
        <time>2019-12-04T11:07:19Z</time>
      </trkpt>
      <trkpt lat="45.38155" lon="6.61724">
        <ele>2615</ele>
        <time>2019-12-04T11:07:31Z</time>
      </trkpt>
      <trkpt lat="45.38157" lon="6.61719">
        <ele>2616</ele>
        <time>2019-12-04T11:07:43Z</time>
      </trkpt>
      <trkpt lat="45.38158" lon="6.61712">
        <ele>2618</ele>
        <time>2019-12-04T11:07:55Z</time>
      </trkpt>
      <trkpt lat="45.3816" lon="6.61705">
        <ele>2620</ele>
        <time>2019-12-04T11:08:13Z</time>
      </trkpt>
      <trkpt lat="45.38162" lon="6.61696">
        <ele>2622</ele>
        <time>2019-12-04T11:08:31Z</time>
      </trkpt>
      <trkpt lat="45.38162" lon="6.6169">
        <ele>2623</ele>
        <time>2019-12-04T11:08:49Z</time>
      </trkpt>
      <trkpt lat="45.38164" lon="6.61683">
        <ele>2626</ele>
        <time>2019-12-04T11:09:13Z</time>
      </trkpt>
      <trkpt lat="45.38162" lon="6.61674">
        <ele>2630</ele>
        <time>2019-12-04T11:09:37Z</time>
      </trkpt>
      <trkpt lat="45.38162" lon="6.61665">
        <ele>2631</ele>
        <time>2019-12-04T11:09:49Z</time>
      </trkpt>
      <trkpt lat="45.38169" lon="6.61653">
        <ele>2634</ele>
        <time>2019-12-04T11:10:19Z</time>
      </trkpt>
      <trkpt lat="45.38173" lon="6.61646">
        <ele>2636</ele>
        <time>2019-12-04T11:10:39Z</time>
      </trkpt>
      <trkpt lat="45.38181" lon="6.61635">
        <ele>2639</ele>
        <time>2019-12-04T11:11:06Z</time>
      </trkpt>
      <trkpt lat="45.38183" lon="6.61628">
        <ele>2641</ele>
        <time>2019-12-04T11:11:18Z</time>
      </trkpt>
      <trkpt lat="45.38181" lon="6.61619">
        <ele>2642</ele>
        <time>2019-12-04T11:11:30Z</time>
      </trkpt>
      <trkpt lat="45.38181" lon="6.61611">
        <ele>2644</ele>
        <time>2019-12-04T11:11:48Z</time>
      </trkpt>
      <trkpt lat="45.38183" lon="6.61604">
        <ele>2646</ele>
        <time>2019-12-04T11:12:00Z</time>
      </trkpt>
      <trkpt lat="45.38179" lon="6.61582">
        <ele>2649</ele>
        <time>2019-12-04T11:12:42Z</time>
      </trkpt>
      <trkpt lat="45.38178" lon="6.61575">
        <ele>2650</ele>
        <time>2019-12-04T11:12:54Z</time>
      </trkpt>
      <trkpt lat="45.38181" lon="6.61564">
        <ele>2651</ele>
        <time>2019-12-04T11:13:06Z</time>
      </trkpt>
      <trkpt lat="45.38183" lon="6.61557">
        <ele>2652</ele>
        <time>2019-12-04T11:13:16Z</time>
      </trkpt>
      <trkpt lat="45.38188" lon="6.61533">
        <ele>2655</ele>
        <time>2019-12-04T11:13:53Z</time>
      </trkpt>
      <trkpt lat="45.3819" lon="6.61526">
        <ele>2656</ele>
        <time>2019-12-04T11:14:05Z</time>
      </trkpt>
      <trkpt lat="45.38192" lon="6.61518">
        <ele>2658</ele>
        <time>2019-12-04T11:14:17Z</time>
      </trkpt>
      <trkpt lat="45.38195" lon="6.61511">
        <ele>2659</ele>
        <time>2019-12-04T11:14:29Z</time>
      </trkpt>
      <trkpt lat="45.38201" lon="6.61508">
        <ele>2660</ele>
        <time>2019-12-04T11:14:41Z</time>
      </trkpt>
      <trkpt lat="45.38206" lon="6.61513">
        <ele>2662</ele>
        <time>2019-12-04T11:14:59Z</time>
      </trkpt>
      <trkpt lat="45.38206" lon="6.6151">
        <ele>2662</ele>
        <time>2019-12-04T11:17:40Z</time>
      </trkpt>
      <trkpt lat="45.38194" lon="6.61496">
        <ele>2660</ele>
        <time>2019-12-04T11:17:50Z</time>
      </trkpt>
      <trkpt lat="45.38189" lon="6.61497">
        <ele>2659</ele>
        <time>2019-12-04T11:17:54Z</time>
      </trkpt>
      <trkpt lat="45.38187" lon="6.61503">
        <ele>2658</ele>
        <time>2019-12-04T11:17:57Z</time>
      </trkpt>
      <trkpt lat="45.38186" lon="6.6151">
        <ele>2658</ele>
        <time>2019-12-04T11:18:01Z</time>
      </trkpt>
      <trkpt lat="45.38191" lon="6.6153">
        <ele>2656</ele>
        <time>2019-12-04T11:18:15Z</time>
      </trkpt>
      <trkpt lat="45.38192" lon="6.61544">
        <ele>2655</ele>
        <time>2019-12-04T11:18:24Z</time>
      </trkpt>
      <trkpt lat="45.38191" lon="6.61554">
        <ele>2653</ele>
        <time>2019-12-04T11:18:43Z</time>
      </trkpt>
      <trkpt lat="45.38194" lon="6.61549">
        <ele>2654</ele>
        <time>2019-12-04T11:19:35Z</time>
      </trkpt>
      <trkpt lat="45.38195" lon="6.61521">
        <ele>2657</ele>
        <time>2019-12-04T11:20:17Z</time>
      </trkpt>
      <trkpt lat="45.38196" lon="6.61513">
        <ele>2659</ele>
        <time>2019-12-04T11:20:27Z</time>
      </trkpt>
      <trkpt lat="45.38199" lon="6.61506">
        <ele>2660</ele>
        <time>2019-12-04T11:20:37Z</time>
      </trkpt>
      <trkpt lat="45.38204" lon="6.61508">
        <ele>2664</ele>
        <time>2019-12-04T11:20:47Z</time>
      </trkpt>
      <trkpt lat="45.38209" lon="6.61507">
        <ele>2665</ele>
        <time>2019-12-04T11:20:57Z</time>
      </trkpt>
      <trkpt lat="45.38216" lon="6.61508">
        <ele>2665</ele>
        <time>2019-12-04T11:21:08Z</time>
      </trkpt>
      <trkpt lat="45.38221" lon="6.61509">
        <ele>2664</ele>
        <time>2019-12-04T11:21:14Z</time>
      </trkpt>
      <trkpt lat="45.38221" lon="6.61513">
        <ele>2664</ele>
        <time>2019-12-04T11:32:05Z</time>
      </trkpt>
      <trkpt lat="45.38227" lon="6.61511">
        <ele>2661</ele>
        <time>2019-12-04T11:36:02Z</time>
      </trkpt>
      <trkpt lat="45.38223" lon="6.61516">
        <ele>2662</ele>
        <time>2019-12-04T12:07:36Z</time>
      </trkpt>
      <trkpt lat="45.38218" lon="6.6151">
        <ele>2661</ele>
        <time>2019-12-04T12:07:48Z</time>
      </trkpt>
      <trkpt lat="45.38222" lon="6.61507">
        <ele>2660</ele>
        <time>2019-12-04T12:09:42Z</time>
      </trkpt>
      <trkpt lat="45.38226" lon="6.61509">
        <ele>2661</ele>
        <time>2019-12-04T12:10:00Z</time>
      </trkpt>
      <trkpt lat="45.38223" lon="6.61518">
        <ele>2661</ele>
        <time>2019-12-04T12:15:10Z</time>
      </trkpt>
      <trkpt lat="45.38217" lon="6.61521">
        <ele>2662</ele>
        <time>2019-12-04T12:16:58Z</time>
      </trkpt>
      <trkpt lat="45.38212" lon="6.61521">
        <ele>2662</ele>
        <time>2019-12-04T12:17:01Z</time>
      </trkpt>
      <trkpt lat="45.38206" lon="6.61519">
        <ele>2662</ele>
        <time>2019-12-04T12:17:04Z</time>
      </trkpt>
      <trkpt lat="45.382" lon="6.61519">
        <ele>2661</ele>
        <time>2019-12-04T12:17:07Z</time>
      </trkpt>
      <trkpt lat="45.38187" lon="6.61534">
        <ele>2655</ele>
        <time>2019-12-04T12:17:11Z</time>
      </trkpt>
      <trkpt lat="45.38184" lon="6.61539">
        <ele>2653</ele>
        <time>2019-12-04T12:17:12Z</time>
      </trkpt>
      <trkpt lat="45.3818" lon="6.61546">
        <ele>2653</ele>
        <time>2019-12-04T12:17:13Z</time>
      </trkpt>
      <trkpt lat="45.38179" lon="6.61553">
        <ele>2653</ele>
        <time>2019-12-04T12:17:14Z</time>
      </trkpt>
      <trkpt lat="45.38175" lon="6.61559">
        <ele>2653</ele>
        <time>2019-12-04T12:17:15Z</time>
      </trkpt>
      <trkpt lat="45.3817" lon="6.61563">
        <ele>2651</ele>
        <time>2019-12-04T12:17:16Z</time>
      </trkpt>
      <trkpt lat="45.3817" lon="6.61572">
        <ele>2649</ele>
        <time>2019-12-04T12:17:18Z</time>
      </trkpt>
      <trkpt lat="45.3817" lon="6.61582">
        <ele>2647</ele>
        <time>2019-12-04T12:17:20Z</time>
      </trkpt>
      <trkpt lat="45.38169" lon="6.61589">
        <ele>2647</ele>
        <time>2019-12-04T12:17:22Z</time>
      </trkpt>
      <trkpt lat="45.38173" lon="6.61595">
        <ele>2646</ele>
        <time>2019-12-04T12:17:24Z</time>
      </trkpt>
      <trkpt lat="45.38176" lon="6.61602">
        <ele>2645</ele>
        <time>2019-12-04T12:17:26Z</time>
      </trkpt>
      <trkpt lat="45.38175" lon="6.6161">
        <ele>2644</ele>
        <time>2019-12-04T12:17:28Z</time>
      </trkpt>
      <trkpt lat="45.38178" lon="6.61618">
        <ele>2642</ele>
        <time>2019-12-04T12:17:31Z</time>
      </trkpt>
      <trkpt lat="45.38183" lon="6.61621">
        <ele>2642</ele>
        <time>2019-12-04T12:17:33Z</time>
      </trkpt>
      <trkpt lat="45.38188" lon="6.61625">
        <ele>2641</ele>
        <time>2019-12-04T12:17:38Z</time>
      </trkpt>
      <trkpt lat="45.38191" lon="6.61636">
        <ele>2638</ele>
        <time>2019-12-04T12:17:57Z</time>
      </trkpt>
      <trkpt lat="45.38186" lon="6.61655">
        <ele>2632</ele>
        <time>2019-12-04T12:18:01Z</time>
      </trkpt>
      <trkpt lat="45.38181" lon="6.61663">
        <ele>2628</ele>
        <time>2019-12-04T12:18:03Z</time>
      </trkpt>
      <trkpt lat="45.38177" lon="6.61673">
        <ele>2627</ele>
        <time>2019-12-04T12:18:05Z</time>
      </trkpt>
      <trkpt lat="45.38173" lon="6.61692">
        <ele>2620</ele>
        <time>2019-12-04T12:18:09Z</time>
      </trkpt>
      <trkpt lat="45.38164" lon="6.61707">
        <ele>2617</ele>
        <time>2019-12-04T12:18:13Z</time>
      </trkpt>
      <trkpt lat="45.38153" lon="6.61737">
        <ele>2609</ele>
        <time>2019-12-04T12:18:19Z</time>
      </trkpt>
      <trkpt lat="45.38152" lon="6.61748">
        <ele>2607</ele>
        <time>2019-12-04T12:18:21Z</time>
      </trkpt>
      <trkpt lat="45.38153" lon="6.61759">
        <ele>2603</ele>
        <time>2019-12-04T12:18:23Z</time>
      </trkpt>
      <trkpt lat="45.38157" lon="6.61768">
        <ele>2603</ele>
        <time>2019-12-04T12:18:25Z</time>
      </trkpt>
      <trkpt lat="45.38152" lon="6.61772">
        <ele>2601</ele>
        <time>2019-12-04T12:18:49Z</time>
      </trkpt>
      <trkpt lat="45.38149" lon="6.61781">
        <ele>2600</ele>
        <time>2019-12-04T12:18:51Z</time>
      </trkpt>
      <trkpt lat="45.38152" lon="6.61816">
        <ele>2591</ele>
        <time>2019-12-04T12:18:57Z</time>
      </trkpt>
      <trkpt lat="45.38155" lon="6.61822">
        <ele>2589</ele>
        <time>2019-12-04T12:18:58Z</time>
      </trkpt>
      <trkpt lat="45.38157" lon="6.61833">
        <ele>2584</ele>
        <time>2019-12-04T12:19:00Z</time>
      </trkpt>
      <trkpt lat="45.38165" lon="6.61838">
        <ele>2586</ele>
        <time>2019-12-04T12:19:02Z</time>
      </trkpt>
      <trkpt lat="45.38169" lon="6.6185">
        <ele>2584</ele>
        <time>2019-12-04T12:19:04Z</time>
      </trkpt>
      <trkpt lat="45.38169" lon="6.61856">
        <ele>2582</ele>
        <time>2019-12-04T12:19:05Z</time>
      </trkpt>
      <trkpt lat="45.38174" lon="6.6188">
        <ele>2578</ele>
        <time>2019-12-04T12:19:09Z</time>
      </trkpt>
      <trkpt lat="45.38178" lon="6.61892">
        <ele>2573</ele>
        <time>2019-12-04T12:19:11Z</time>
      </trkpt>
      <trkpt lat="45.38178" lon="6.61901">
        <ele>2571</ele>
        <time>2019-12-04T12:19:13Z</time>
      </trkpt>
      <trkpt lat="45.38173" lon="6.61899">
        <ele>2570</ele>
        <time>2019-12-04T12:19:15Z</time>
      </trkpt>
      <trkpt lat="45.38174" lon="6.61906">
        <ele>2568</ele>
        <time>2019-12-04T12:21:10Z</time>
      </trkpt>
      <trkpt lat="45.38183" lon="6.61921">
        <ele>2563</ele>
        <time>2019-12-04T12:21:13Z</time>
      </trkpt>
      <trkpt lat="45.38195" lon="6.61937">
        <ele>2558</ele>
        <time>2019-12-04T12:21:16Z</time>
      </trkpt>
      <trkpt lat="45.38206" lon="6.61943">
        <ele>2554</ele>
        <time>2019-12-04T12:21:18Z</time>
      </trkpt>
      <trkpt lat="45.38216" lon="6.61943">
        <ele>2550</ele>
        <time>2019-12-04T12:21:20Z</time>
      </trkpt>
      <trkpt lat="45.38223" lon="6.61938">
        <ele>2549</ele>
        <time>2019-12-04T12:21:22Z</time>
      </trkpt>
      <trkpt lat="45.38229" lon="6.61937">
        <ele>2546</ele>
        <time>2019-12-04T12:21:23Z</time>
      </trkpt>
      <trkpt lat="45.38234" lon="6.61937">
        <ele>2546</ele>
        <time>2019-12-04T12:21:24Z</time>
      </trkpt>
      <trkpt lat="45.38241" lon="6.61937">
        <ele>2542</ele>
        <time>2019-12-04T12:21:26Z</time>
      </trkpt>
      <trkpt lat="45.38252" lon="6.61928">
        <ele>2537</ele>
        <time>2019-12-04T12:21:29Z</time>
      </trkpt>
      <trkpt lat="45.38259" lon="6.61925">
        <ele>2535</ele>
        <time>2019-12-04T12:21:31Z</time>
      </trkpt>
      <trkpt lat="45.38265" lon="6.61922">
        <ele>2532</ele>
        <time>2019-12-04T12:21:33Z</time>
      </trkpt>
      <trkpt lat="45.3827" lon="6.61916">
        <ele>2531</ele>
        <time>2019-12-04T12:21:35Z</time>
      </trkpt>
      <trkpt lat="45.38309" lon="6.61919">
        <ele>2519</ele>
        <time>2019-12-04T12:21:43Z</time>
      </trkpt>
      <trkpt lat="45.38315" lon="6.61916">
        <ele>2521</ele>
        <time>2019-12-04T12:21:45Z</time>
      </trkpt>
      <trkpt lat="45.3832" lon="6.61915">
        <ele>2521</ele>
        <time>2019-12-04T12:21:47Z</time>
      </trkpt>
      <trkpt lat="45.38322" lon="6.61927">
        <ele>2515</ele>
        <time>2019-12-04T12:24:14Z</time>
      </trkpt>
      <trkpt lat="45.38329" lon="6.61924">
        <ele>2512</ele>
        <time>2019-12-04T12:24:20Z</time>
      </trkpt>
      <trkpt lat="45.38334" lon="6.61918">
        <ele>2512</ele>
        <time>2019-12-04T12:24:22Z</time>
      </trkpt>
      <trkpt lat="45.3834" lon="6.61914">
        <ele>2510</ele>
        <time>2019-12-04T12:24:24Z</time>
      </trkpt>
      <trkpt lat="45.38345" lon="6.61917">
        <ele>2507</ele>
        <time>2019-12-04T12:24:26Z</time>
      </trkpt>
      <trkpt lat="45.38352" lon="6.61917">
        <ele>2503</ele>
        <time>2019-12-04T12:24:29Z</time>
      </trkpt>
      <trkpt lat="45.38357" lon="6.61916">
        <ele>2503</ele>
        <time>2019-12-04T12:24:31Z</time>
      </trkpt>
      <trkpt lat="45.38379" lon="6.61943">
        <ele>2489</ele>
        <time>2019-12-04T12:24:39Z</time>
      </trkpt>
      <trkpt lat="45.38387" lon="6.61961">
        <ele>2481</ele>
        <time>2019-12-04T12:24:43Z</time>
      </trkpt>
      <trkpt lat="45.38394" lon="6.61956">
        <ele>2479</ele>
        <time>2019-12-04T12:25:44Z</time>
      </trkpt>
      <trkpt lat="45.384" lon="6.61959">
        <ele>2478</ele>
        <time>2019-12-04T12:25:46Z</time>
      </trkpt>
      <trkpt lat="45.38404" lon="6.61966">
        <ele>2475</ele>
        <time>2019-12-04T12:25:48Z</time>
      </trkpt>
      <trkpt lat="45.38413" lon="6.61979">
        <ele>2467</ele>
        <time>2019-12-04T12:25:52Z</time>
      </trkpt>
      <trkpt lat="45.38416" lon="6.61987">
        <ele>2463</ele>
        <time>2019-12-04T12:25:54Z</time>
      </trkpt>
      <trkpt lat="45.38415" lon="6.61995">
        <ele>2460</ele>
        <time>2019-12-04T12:25:56Z</time>
      </trkpt>
      <trkpt lat="45.38416" lon="6.62003">
        <ele>2456</ele>
        <time>2019-12-04T12:26:02Z</time>
      </trkpt>
      <trkpt lat="45.3842" lon="6.62008">
        <ele>2454</ele>
        <time>2019-12-04T12:26:04Z</time>
      </trkpt>
      <trkpt lat="45.38423" lon="6.62015">
        <ele>2449</ele>
        <time>2019-12-04T12:26:06Z</time>
      </trkpt>
      <trkpt lat="45.38427" lon="6.62018">
        <ele>2446</ele>
        <time>2019-12-04T12:26:08Z</time>
      </trkpt>
      <trkpt lat="45.38438" lon="6.62028">
        <ele>2442</ele>
        <time>2019-12-04T12:26:12Z</time>
      </trkpt>
      <trkpt lat="45.38431" lon="6.62045">
        <ele>2436</ele>
        <time>2019-12-04T12:26:16Z</time>
      </trkpt>
      <trkpt lat="45.38421" lon="6.62053">
        <ele>2437</ele>
        <time>2019-12-04T12:26:17Z</time>
      </trkpt>
      <trkpt lat="45.3842" lon="6.6206">
        <ele>2434</ele>
        <time>2019-12-04T12:26:18Z</time>
      </trkpt>
      <trkpt lat="45.38419" lon="6.62067">
        <ele>2434</ele>
        <time>2019-12-04T12:26:19Z</time>
      </trkpt>
      <trkpt lat="45.38417" lon="6.62073">
        <ele>2434</ele>
        <time>2019-12-04T12:26:20Z</time>
      </trkpt>
      <trkpt lat="45.38414" lon="6.62082">
        <ele>2433</ele>
        <time>2019-12-04T12:26:26Z</time>
      </trkpt>
      <trkpt lat="45.38419" lon="6.62094">
        <ele>2426</ele>
        <time>2019-12-04T12:27:56Z</time>
      </trkpt>
      <trkpt lat="45.38422" lon="6.62101">
        <ele>2424</ele>
        <time>2019-12-04T12:27:57Z</time>
      </trkpt>
      <trkpt lat="45.38426" lon="6.62105">
        <ele>2421</ele>
        <time>2019-12-04T12:27:58Z</time>
      </trkpt>
      <trkpt lat="45.38428" lon="6.62111">
        <ele>2420</ele>
        <time>2019-12-04T12:27:59Z</time>
      </trkpt>
      <trkpt lat="45.38432" lon="6.62115">
        <ele>2418</ele>
        <time>2019-12-04T12:28:00Z</time>
      </trkpt>
      <trkpt lat="45.38437" lon="6.62126">
        <ele>2415</ele>
        <time>2019-12-04T12:28:02Z</time>
      </trkpt>
      <trkpt lat="45.38438" lon="6.62133">
        <ele>2413</ele>
        <time>2019-12-04T12:28:03Z</time>
      </trkpt>
      <trkpt lat="45.38444" lon="6.62143">
        <ele>2411</ele>
        <time>2019-12-04T12:28:05Z</time>
      </trkpt>
      <trkpt lat="45.38449" lon="6.6215">
        <ele>2408</ele>
        <time>2019-12-04T12:28:07Z</time>
      </trkpt>
      <trkpt lat="45.38454" lon="6.62159">
        <ele>2406</ele>
        <time>2019-12-04T12:28:09Z</time>
      </trkpt>
      <trkpt lat="45.38457" lon="6.6217">
        <ele>2401</ele>
        <time>2019-12-04T12:28:11Z</time>
      </trkpt>
      <trkpt lat="45.38452" lon="6.6218">
        <ele>2400</ele>
        <time>2019-12-04T12:28:13Z</time>
      </trkpt>
      <trkpt lat="45.38451" lon="6.62187">
        <ele>2398</ele>
        <time>2019-12-04T12:28:14Z</time>
      </trkpt>
      <trkpt lat="45.38455" lon="6.62207">
        <ele>2393</ele>
        <time>2019-12-04T12:28:17Z</time>
      </trkpt>
      <trkpt lat="45.38459" lon="6.62212">
        <ele>2391</ele>
        <time>2019-12-04T12:28:18Z</time>
      </trkpt>
      <trkpt lat="45.38463" lon="6.62217">
        <ele>2391</ele>
        <time>2019-12-04T12:28:19Z</time>
      </trkpt>
      <trkpt lat="45.38466" lon="6.62224">
        <ele>2388</ele>
        <time>2019-12-04T12:28:20Z</time>
      </trkpt>
      <trkpt lat="45.38473" lon="6.62243">
        <ele>2383</ele>
        <time>2019-12-04T12:30:40Z</time>
      </trkpt>
      <trkpt lat="45.38481" lon="6.62259">
        <ele>2380</ele>
        <time>2019-12-04T12:30:43Z</time>
      </trkpt>
      <trkpt lat="45.38486" lon="6.62266">
        <ele>2378</ele>
        <time>2019-12-04T12:30:45Z</time>
      </trkpt>
      <trkpt lat="45.38488" lon="6.62272">
        <ele>2376</ele>
        <time>2019-12-04T12:30:46Z</time>
      </trkpt>
      <trkpt lat="45.38497" lon="6.62303">
        <ele>2365</ele>
        <time>2019-12-04T12:30:52Z</time>
      </trkpt>
      <trkpt lat="45.38502" lon="6.6231">
        <ele>2362</ele>
        <time>2019-12-04T12:30:54Z</time>
      </trkpt>
      <trkpt lat="45.3851" lon="6.62332">
        <ele>2355</ele>
        <time>2019-12-04T12:30:58Z</time>
      </trkpt>
      <trkpt lat="45.38519" lon="6.62341">
        <ele>2349</ele>
        <time>2019-12-04T12:31:01Z</time>
      </trkpt>
      <trkpt lat="45.38523" lon="6.62345">
        <ele>2349</ele>
        <time>2019-12-04T12:31:02Z</time>
      </trkpt>
      <trkpt lat="45.38532" lon="6.62356">
        <ele>2341</ele>
        <time>2019-12-04T12:31:05Z</time>
      </trkpt>
      <trkpt lat="45.38537" lon="6.62356">
        <ele>2341</ele>
        <time>2019-12-04T12:31:07Z</time>
      </trkpt>
      <trkpt lat="45.38544" lon="6.62353">
        <ele>2341</ele>
        <time>2019-12-04T12:31:11Z</time>
      </trkpt>
      <trkpt lat="45.38547" lon="6.6235">
        <ele>2340</ele>
        <time>2019-12-04T12:31:22Z</time>
      </trkpt>
      <trkpt lat="45.3855" lon="6.62344">
        <ele>2339</ele>
        <time>2019-12-04T12:33:11Z</time>
      </trkpt>
      <trkpt lat="45.38557" lon="6.62345">
        <ele>2337</ele>
        <time>2019-12-04T12:33:13Z</time>
      </trkpt>
      <trkpt lat="45.38564" lon="6.62352">
        <ele>2334</ele>
        <time>2019-12-04T12:33:15Z</time>
      </trkpt>
      <trkpt lat="45.38575" lon="6.62361">
        <ele>2328</ele>
        <time>2019-12-04T12:33:19Z</time>
      </trkpt>
      <trkpt lat="45.38581" lon="6.62364">
        <ele>2328</ele>
        <time>2019-12-04T12:33:20Z</time>
      </trkpt>
      <trkpt lat="45.38596" lon="6.62368">
        <ele>2322</ele>
        <time>2019-12-04T12:33:23Z</time>
      </trkpt>
      <trkpt lat="45.38609" lon="6.62369">
        <ele>2315</ele>
        <time>2019-12-04T12:33:27Z</time>
      </trkpt>
      <trkpt lat="45.38611" lon="6.62379">
        <ele>2313</ele>
        <time>2019-12-04T12:33:29Z</time>
      </trkpt>
      <trkpt lat="45.38618" lon="6.62382">
        <ele>2311</ele>
        <time>2019-12-04T12:33:31Z</time>
      </trkpt>
      <trkpt lat="45.38621" lon="6.62393">
        <ele>2308</ele>
        <time>2019-12-04T12:33:33Z</time>
      </trkpt>
      <trkpt lat="45.3862" lon="6.62402">
        <ele>2306</ele>
        <time>2019-12-04T12:33:35Z</time>
      </trkpt>
      <trkpt lat="45.38615" lon="6.62413">
        <ele>2303</ele>
        <time>2019-12-04T12:33:37Z</time>
      </trkpt>
      <trkpt lat="45.38617" lon="6.62422">
        <ele>2302</ele>
        <time>2019-12-04T12:33:39Z</time>
      </trkpt>
      <trkpt lat="45.38624" lon="6.62425">
        <ele>2298</ele>
        <time>2019-12-04T12:33:41Z</time>
      </trkpt>
      <trkpt lat="45.38625" lon="6.62432">
        <ele>2296</ele>
        <time>2019-12-04T12:33:43Z</time>
      </trkpt>
      <trkpt lat="45.38632" lon="6.62434">
        <ele>2293</ele>
        <time>2019-12-04T12:33:47Z</time>
      </trkpt>
      <trkpt lat="45.38651" lon="6.62454">
        <ele>2280</ele>
        <time>2019-12-04T12:33:55Z</time>
      </trkpt>
      <trkpt lat="45.38655" lon="6.62449">
        <ele>2279</ele>
        <time>2019-12-04T12:34:15Z</time>
      </trkpt>
      <trkpt lat="45.3866" lon="6.62455">
        <ele>2275</ele>
        <time>2019-12-04T12:34:17Z</time>
      </trkpt>
      <trkpt lat="45.38661" lon="6.62466">
        <ele>2273</ele>
        <time>2019-12-04T12:34:19Z</time>
      </trkpt>
      <trkpt lat="45.38663" lon="6.62473">
        <ele>2270</ele>
        <time>2019-12-04T12:34:21Z</time>
      </trkpt>
      <trkpt lat="45.38668" lon="6.62475">
        <ele>2269</ele>
        <time>2019-12-04T12:34:22Z</time>
      </trkpt>
      <trkpt lat="45.38672" lon="6.62478">
        <ele>2267</ele>
        <time>2019-12-04T12:34:23Z</time>
      </trkpt>
      <trkpt lat="45.38674" lon="6.62484">
        <ele>2264</ele>
        <time>2019-12-04T12:34:24Z</time>
      </trkpt>
      <trkpt lat="45.38673" lon="6.62505">
        <ele>2259</ele>
        <time>2019-12-04T12:34:27Z</time>
      </trkpt>
      <trkpt lat="45.38672" lon="6.62513">
        <ele>2260</ele>
        <time>2019-12-04T12:34:28Z</time>
      </trkpt>
      <trkpt lat="45.38672" lon="6.6252">
        <ele>2259</ele>
        <time>2019-12-04T12:34:29Z</time>
      </trkpt>
      <trkpt lat="45.38672" lon="6.62533">
        <ele>2257</ele>
        <time>2019-12-04T12:34:31Z</time>
      </trkpt>
      <trkpt lat="45.38679" lon="6.62536">
        <ele>2254</ele>
        <time>2019-12-04T12:34:33Z</time>
      </trkpt>
      <trkpt lat="45.38682" lon="6.62546">
        <ele>2253</ele>
        <time>2019-12-04T12:34:35Z</time>
      </trkpt>
      <trkpt lat="45.38683" lon="6.62555">
        <ele>2249</ele>
        <time>2019-12-04T12:34:37Z</time>
      </trkpt>
      <trkpt lat="45.38686" lon="6.6256">
        <ele>2249</ele>
        <time>2019-12-04T12:34:38Z</time>
      </trkpt>
      <trkpt lat="45.38693" lon="6.62573">
        <ele>2245</ele>
        <time>2019-12-04T12:34:42Z</time>
      </trkpt>
      <trkpt lat="45.3869" lon="6.62578">
        <ele>2243</ele>
        <time>2019-12-04T12:34:46Z</time>
      </trkpt>
      <trkpt lat="45.38687" lon="6.62584">
        <ele>2234</ele>
        <time>2019-12-04T12:36:32Z</time>
      </trkpt>
      <trkpt lat="45.38686" lon="6.62594">
        <ele>2233</ele>
        <time>2019-12-04T12:36:34Z</time>
      </trkpt>
      <trkpt lat="45.38689" lon="6.62602">
        <ele>2231</ele>
        <time>2019-12-04T12:36:36Z</time>
      </trkpt>
      <trkpt lat="45.38692" lon="6.62613">
        <ele>2228</ele>
        <time>2019-12-04T12:36:38Z</time>
      </trkpt>
      <trkpt lat="45.38699" lon="6.62615">
        <ele>2225</ele>
        <time>2019-12-04T12:36:40Z</time>
      </trkpt>
      <trkpt lat="45.38701" lon="6.62624">
        <ele>2222</ele>
        <time>2019-12-04T12:36:42Z</time>
      </trkpt>
      <trkpt lat="45.38718" lon="6.62637">
        <ele>2216</ele>
        <time>2019-12-04T12:36:47Z</time>
      </trkpt>
      <trkpt lat="45.38726" lon="6.62637">
        <ele>2213</ele>
        <time>2019-12-04T12:36:49Z</time>
      </trkpt>
      <trkpt lat="45.38744" lon="6.62659">
        <ele>2199</ele>
        <time>2019-12-04T12:36:57Z</time>
      </trkpt>
      <trkpt lat="45.38757" lon="6.62662">
        <ele>2194</ele>
        <time>2019-12-04T12:37:01Z</time>
      </trkpt>
      <trkpt lat="45.38769" lon="6.62655">
        <ele>2188</ele>
        <time>2019-12-04T12:37:05Z</time>
      </trkpt>
      <trkpt lat="45.38771" lon="6.62647">
        <ele>2185</ele>
        <time>2019-12-04T12:37:08Z</time>
      </trkpt>
      <trkpt lat="45.3877" lon="6.62641">
        <ele>2186</ele>
        <time>2019-12-04T12:37:22Z</time>
      </trkpt>
      <trkpt lat="45.38779" lon="6.62642">
        <ele>2181</ele>
        <time>2019-12-04T12:38:44Z</time>
      </trkpt>
      <trkpt lat="45.38796" lon="6.62647">
        <ele>2174</ele>
        <time>2019-12-04T12:38:48Z</time>
      </trkpt>
      <trkpt lat="45.38818" lon="6.62665">
        <ele>2166</ele>
        <time>2019-12-04T12:38:54Z</time>
      </trkpt>
      <trkpt lat="45.38823" lon="6.62671">
        <ele>2166</ele>
        <time>2019-12-04T12:38:56Z</time>
      </trkpt>
      <trkpt lat="45.38826" lon="6.62678">
        <ele>2164</ele>
        <time>2019-12-04T12:38:58Z</time>
      </trkpt>
      <trkpt lat="45.38831" lon="6.62681">
        <ele>2162</ele>
        <time>2019-12-04T12:39:01Z</time>
      </trkpt>
      <trkpt lat="45.38836" lon="6.62674">
        <ele>2161</ele>
        <time>2019-12-04T12:39:03Z</time>
      </trkpt>
      <trkpt lat="45.38841" lon="6.62667">
        <ele>2161</ele>
        <time>2019-12-04T12:39:05Z</time>
      </trkpt>
      <trkpt lat="45.38846" lon="6.62665">
        <ele>2160</ele>
        <time>2019-12-04T12:39:07Z</time>
      </trkpt>
      <trkpt lat="45.38855" lon="6.62665">
        <ele>2158</ele>
        <time>2019-12-04T12:39:12Z</time>
      </trkpt>
      <trkpt lat="45.38862" lon="6.62667">
        <ele>2157</ele>
        <time>2019-12-04T12:39:14Z</time>
      </trkpt>
      <trkpt lat="45.38867" lon="6.62669">
        <ele>2156</ele>
        <time>2019-12-04T12:39:15Z</time>
      </trkpt>
      <trkpt lat="45.38878" lon="6.62673">
        <ele>2156</ele>
        <time>2019-12-04T12:39:16Z</time>
      </trkpt>
      <trkpt lat="45.38885" lon="6.62677">
        <ele>2152</ele>
        <time>2019-12-04T12:39:17Z</time>
      </trkpt>
      <trkpt lat="45.38891" lon="6.62684">
        <ele>2154</ele>
        <time>2019-12-04T12:39:18Z</time>
      </trkpt>
      <trkpt lat="45.38898" lon="6.62689">
        <ele>2151</ele>
        <time>2019-12-04T12:39:19Z</time>
      </trkpt>
      <trkpt lat="45.38904" lon="6.62693">
        <ele>2151</ele>
        <time>2019-12-04T12:39:20Z</time>
      </trkpt>
      <trkpt lat="45.3891" lon="6.62697">
        <ele>2150</ele>
        <time>2019-12-04T12:39:21Z</time>
      </trkpt>
      <trkpt lat="45.38916" lon="6.627">
        <ele>2147</ele>
        <time>2019-12-04T12:39:22Z</time>
      </trkpt>
      <trkpt lat="45.38921" lon="6.62704">
        <ele>2148</ele>
        <time>2019-12-04T12:39:23Z</time>
      </trkpt>
      <trkpt lat="45.38924" lon="6.62709">
        <ele>2147</ele>
        <time>2019-12-04T12:39:24Z</time>
      </trkpt>
      <trkpt lat="45.38928" lon="6.62715">
        <ele>2148</ele>
        <time>2019-12-04T12:39:25Z</time>
      </trkpt>
      <trkpt lat="45.38931" lon="6.6272">
        <ele>2147</ele>
        <time>2019-12-04T12:39:26Z</time>
      </trkpt>
      <trkpt lat="45.38937" lon="6.62725">
        <ele>2146</ele>
        <time>2019-12-04T12:39:28Z</time>
      </trkpt>
      <trkpt lat="45.38941" lon="6.62729">
        <ele>2142</ele>
        <time>2019-12-04T12:40:42Z</time>
      </trkpt>
      <trkpt lat="45.38947" lon="6.62733">
        <ele>2140</ele>
        <time>2019-12-04T12:40:44Z</time>
      </trkpt>
      <trkpt lat="45.38953" lon="6.62741">
        <ele>2140</ele>
        <time>2019-12-04T12:40:46Z</time>
      </trkpt>
      <trkpt lat="45.3897" lon="6.62806">
        <ele>2127</ele>
        <time>2019-12-04T12:40:58Z</time>
      </trkpt>
      <trkpt lat="45.38975" lon="6.62815">
        <ele>2126</ele>
        <time>2019-12-04T12:41:00Z</time>
      </trkpt>
      <trkpt lat="45.38978" lon="6.6282">
        <ele>2125</ele>
        <time>2019-12-04T12:41:01Z</time>
      </trkpt>
      <trkpt lat="45.38984" lon="6.62829">
        <ele>2124</ele>
        <time>2019-12-04T12:41:03Z</time>
      </trkpt>
      <trkpt lat="45.38989" lon="6.62838">
        <ele>2122</ele>
        <time>2019-12-04T12:41:05Z</time>
      </trkpt>
      <trkpt lat="45.38993" lon="6.62848">
        <ele>2122</ele>
        <time>2019-12-04T12:41:07Z</time>
      </trkpt>
      <trkpt lat="45.39001" lon="6.62867">
        <ele>2118</ele>
        <time>2019-12-04T12:41:11Z</time>
      </trkpt>
      <trkpt lat="45.39005" lon="6.62872">
        <ele>2119</ele>
        <time>2019-12-04T12:41:12Z</time>
      </trkpt>
      <trkpt lat="45.39008" lon="6.62878">
        <ele>2117</ele>
        <time>2019-12-04T12:41:13Z</time>
      </trkpt>
      <trkpt lat="45.39011" lon="6.62883">
        <ele>2118</ele>
        <time>2019-12-04T12:41:14Z</time>
      </trkpt>
      <trkpt lat="45.39014" lon="6.62889">
        <ele>2116</ele>
        <time>2019-12-04T12:41:15Z</time>
      </trkpt>
      <trkpt lat="45.39017" lon="6.62894">
        <ele>2117</ele>
        <time>2019-12-04T12:41:16Z</time>
      </trkpt>
      <trkpt lat="45.39025" lon="6.62906">
        <ele>2114</ele>
        <time>2019-12-04T12:41:18Z</time>
      </trkpt>
      <trkpt lat="45.39029" lon="6.62913">
        <ele>2115</ele>
        <time>2019-12-04T12:41:19Z</time>
      </trkpt>
      <trkpt lat="45.39032" lon="6.62918">
        <ele>2114</ele>
        <time>2019-12-04T12:41:20Z</time>
      </trkpt>
      <trkpt lat="45.39038" lon="6.6293">
        <ele>2113</ele>
        <time>2019-12-04T12:41:22Z</time>
      </trkpt>
      <trkpt lat="45.39042" lon="6.62938">
        <ele>2113</ele>
        <time>2019-12-04T12:41:24Z</time>
      </trkpt>
      <trkpt lat="45.39055" lon="6.6296">
        <ele>2109</ele>
        <time>2019-12-04T12:41:30Z</time>
      </trkpt>
      <trkpt lat="45.39058" lon="6.62966">
        <ele>2109</ele>
        <time>2019-12-04T12:41:31Z</time>
      </trkpt>
      <trkpt lat="45.39061" lon="6.62972">
        <ele>2108</ele>
        <time>2019-12-04T12:41:32Z</time>
      </trkpt>
      <trkpt lat="45.39063" lon="6.62979">
        <ele>2107</ele>
        <time>2019-12-04T12:41:33Z</time>
      </trkpt>
      <trkpt lat="45.39065" lon="6.62986">
        <ele>2108</ele>
        <time>2019-12-04T12:41:34Z</time>
      </trkpt>
      <trkpt lat="45.39075" lon="6.63014">
        <ele>2106</ele>
        <time>2019-12-04T12:41:39Z</time>
      </trkpt>
      <trkpt lat="45.39078" lon="6.63024">
        <ele>2106</ele>
        <time>2019-12-04T12:41:41Z</time>
      </trkpt>
      <trkpt lat="45.39083" lon="6.63031">
        <ele>2106</ele>
        <time>2019-12-04T12:41:43Z</time>
      </trkpt>
      <trkpt lat="45.39088" lon="6.63035">
        <ele>2106</ele>
        <time>2019-12-04T12:41:45Z</time>
      </trkpt>
      <trkpt lat="45.39092" lon="6.63037">
        <ele>2106</ele>
        <time>2019-12-04T12:41:47Z</time>
      </trkpt>
      <trkpt lat="45.39097" lon="6.63037">
        <ele>2105</ele>
        <time>2019-12-04T12:41:49Z</time>
      </trkpt>
      <trkpt lat="45.39104" lon="6.63036">
        <ele>2105</ele>
        <time>2019-12-04T12:41:51Z</time>
      </trkpt>
      <trkpt lat="45.39106" lon="6.63043">
        <ele>2103</ele>
        <time>2019-12-04T12:41:54Z</time>
      </trkpt>
      <trkpt lat="45.39101" lon="6.63046">
        <ele>2103</ele>
        <time>2019-12-04T12:41:56Z</time>
      </trkpt>
      <trkpt lat="45.39096" lon="6.63045">
        <ele>2102</ele>
        <time>2019-12-04T12:42:09Z</time>
      </trkpt>
      <trkpt lat="45.39106" lon="6.63053">
        <ele>2098</ele>
        <time>2019-12-04T12:42:51Z</time>
      </trkpt>
      <trkpt lat="45.39118" lon="6.63059">
        <ele>2095</ele>
        <time>2019-12-04T12:42:53Z</time>
      </trkpt>
      <trkpt lat="45.39124" lon="6.63064">
        <ele>2095</ele>
        <time>2019-12-04T12:42:54Z</time>
      </trkpt>
      <trkpt lat="45.39131" lon="6.63068">
        <ele>2094</ele>
        <time>2019-12-04T12:42:55Z</time>
      </trkpt>
      <trkpt lat="45.39143" lon="6.63075">
        <ele>2094</ele>
        <time>2019-12-04T12:42:57Z</time>
      </trkpt>
      <trkpt lat="45.39148" lon="6.63078">
        <ele>2094</ele>
        <time>2019-12-04T12:42:58Z</time>
      </trkpt>
      <trkpt lat="45.39153" lon="6.6308">
        <ele>2094</ele>
        <time>2019-12-04T12:42:59Z</time>
      </trkpt>
      <trkpt lat="45.3916" lon="6.6308">
        <ele>2094</ele>
        <time>2019-12-04T12:43:01Z</time>
      </trkpt>
      <trkpt lat="45.39167" lon="6.63081">
        <ele>2094</ele>
        <time>2019-12-04T12:45:02Z</time>
      </trkpt>
      <trkpt lat="45.39173" lon="6.63084">
        <ele>2095</ele>
        <time>2019-12-04T12:47:46Z</time>
      </trkpt>
      <trkpt lat="45.39207" lon="6.63099">
        <ele>2091</ele>
        <time>2019-12-04T12:47:54Z</time>
      </trkpt>
      <trkpt lat="45.39212" lon="6.63101">
        <ele>2091</ele>
        <time>2019-12-04T12:47:55Z</time>
      </trkpt>
      <trkpt lat="45.39223" lon="6.63104">
        <ele>2090</ele>
        <time>2019-12-04T12:47:57Z</time>
      </trkpt>
      <trkpt lat="45.39228" lon="6.63105">
        <ele>2090</ele>
        <time>2019-12-04T12:47:58Z</time>
      </trkpt>
      <trkpt lat="45.39232" lon="6.63106">
        <ele>2090</ele>
        <time>2019-12-04T12:47:59Z</time>
      </trkpt>
      <trkpt lat="45.39264" lon="6.6311">
        <ele>2085</ele>
        <time>2019-12-04T12:48:05Z</time>
      </trkpt>
      <trkpt lat="45.39269" lon="6.63104">
        <ele>2085</ele>
        <time>2019-12-04T12:48:06Z</time>
      </trkpt>
      <trkpt lat="45.39274" lon="6.63102">
        <ele>2085</ele>
        <time>2019-12-04T12:48:07Z</time>
      </trkpt>
      <trkpt lat="45.39278" lon="6.631">
        <ele>2084</ele>
        <time>2019-12-04T12:48:08Z</time>
      </trkpt>
      <trkpt lat="45.39286" lon="6.63096">
        <ele>2084</ele>
        <time>2019-12-04T12:48:10Z</time>
      </trkpt>
      <trkpt lat="45.39292" lon="6.63093">
        <ele>2082</ele>
        <time>2019-12-04T12:48:14Z</time>
      </trkpt>
      <trkpt lat="45.39299" lon="6.6309">
        <ele>2082</ele>
        <time>2019-12-04T12:48:17Z</time>
      </trkpt>
      <trkpt lat="45.39314" lon="6.63082">
        <ele>2079</ele>
        <time>2019-12-04T12:48:25Z</time>
      </trkpt>
      <trkpt lat="45.39354" lon="6.63068">
        <ele>2073</ele>
        <time>2019-12-04T12:48:43Z</time>
      </trkpt>
      <trkpt lat="45.39376" lon="6.63113">
        <ele>2068</ele>
        <time>2019-12-04T12:48:51Z</time>
      </trkpt>
      <trkpt lat="45.39394" lon="6.6311">
        <ele>2067</ele>
        <time>2019-12-04T12:48:53Z</time>
      </trkpt>
      <trkpt lat="45.39399" lon="6.63112">
        <ele>2065</ele>
        <time>2019-12-04T12:48:54Z</time>
      </trkpt>
      <trkpt lat="45.39405" lon="6.63115">
        <ele>2065</ele>
        <time>2019-12-04T12:48:55Z</time>
      </trkpt>
      <trkpt lat="45.3941" lon="6.63117">
        <ele>2064</ele>
        <time>2019-12-04T12:48:56Z</time>
      </trkpt>
      <trkpt lat="45.39415" lon="6.63118">
        <ele>2063</ele>
        <time>2019-12-04T12:48:57Z</time>
      </trkpt>
      <trkpt lat="45.3942" lon="6.6312">
        <ele>2064</ele>
        <time>2019-12-04T12:48:58Z</time>
      </trkpt>
      <trkpt lat="45.39426" lon="6.63122">
        <ele>2063</ele>
        <time>2019-12-04T12:48:59Z</time>
      </trkpt>
      <trkpt lat="45.39431" lon="6.63123">
        <ele>2063</ele>
        <time>2019-12-04T12:49:01Z</time>
      </trkpt>
      <trkpt lat="45.39449" lon="6.63134">
        <ele>2060</ele>
        <time>2019-12-04T12:49:07Z</time>
      </trkpt>
      <trkpt lat="45.39454" lon="6.63136">
        <ele>2061</ele>
        <time>2019-12-04T12:49:08Z</time>
      </trkpt>
      <trkpt lat="45.39462" lon="6.63139">
        <ele>2059</ele>
        <time>2019-12-04T12:49:10Z</time>
      </trkpt>
      <trkpt lat="45.39467" lon="6.6314">
        <ele>2061</ele>
        <time>2019-12-04T12:49:11Z</time>
      </trkpt>
      <trkpt lat="45.39473" lon="6.63142">
        <ele>2058</ele>
        <time>2019-12-04T12:49:12Z</time>
      </trkpt>
      <trkpt lat="45.39478" lon="6.63144">
        <ele>2059</ele>
        <time>2019-12-04T12:49:13Z</time>
      </trkpt>
      <trkpt lat="45.39484" lon="6.63146">
        <ele>2058</ele>
        <time>2019-12-04T12:49:14Z</time>
      </trkpt>
      <trkpt lat="45.39491" lon="6.63147">
        <ele>2058</ele>
        <time>2019-12-04T12:49:16Z</time>
      </trkpt>
      <trkpt lat="45.39497" lon="6.63149">
        <ele>2059</ele>
        <time>2019-12-04T12:49:17Z</time>
      </trkpt>
      <trkpt lat="45.39502" lon="6.63151">
        <ele>2057</ele>
        <time>2019-12-04T12:49:18Z</time>
      </trkpt>
      <trkpt lat="45.39509" lon="6.63152">
        <ele>2058</ele>
        <time>2019-12-04T12:49:19Z</time>
      </trkpt>
      <trkpt lat="45.39519" lon="6.63154">
        <ele>2056</ele>
        <time>2019-12-04T12:49:21Z</time>
      </trkpt>
      <trkpt lat="45.39525" lon="6.63155">
        <ele>2057</ele>
        <time>2019-12-04T12:49:22Z</time>
      </trkpt>
      <trkpt lat="45.39531" lon="6.63156">
        <ele>2056</ele>
        <time>2019-12-04T12:49:23Z</time>
      </trkpt>
      <trkpt lat="45.39537" lon="6.63156">
        <ele>2056</ele>
        <time>2019-12-04T12:49:24Z</time>
      </trkpt>
      <trkpt lat="45.39543" lon="6.63156">
        <ele>2056</ele>
        <time>2019-12-04T12:49:25Z</time>
      </trkpt>
      <trkpt lat="45.39549" lon="6.63156">
        <ele>2055</ele>
        <time>2019-12-04T12:49:26Z</time>
      </trkpt>
      <trkpt lat="45.39554" lon="6.63156">
        <ele>2056</ele>
        <time>2019-12-04T12:49:27Z</time>
      </trkpt>
      <trkpt lat="45.3956" lon="6.63156">
        <ele>2055</ele>
        <time>2019-12-04T12:49:28Z</time>
      </trkpt>
      <trkpt lat="45.39573" lon="6.63153">
        <ele>2054</ele>
        <time>2019-12-04T12:49:32Z</time>
      </trkpt>
      <trkpt lat="45.39578" lon="6.63147">
        <ele>2054</ele>
        <time>2019-12-04T12:49:34Z</time>
      </trkpt>
      <trkpt lat="45.39584" lon="6.63153">
        <ele>2053</ele>
        <time>2019-12-04T12:49:36Z</time>
      </trkpt>
      <trkpt lat="45.3959" lon="6.6315">
        <ele>2052</ele>
        <time>2019-12-04T12:50:15Z</time>
      </trkpt>
      <trkpt lat="45.39597" lon="6.63152">
        <ele>2050</ele>
        <time>2019-12-04T12:50:17Z</time>
      </trkpt>
      <trkpt lat="45.39672" lon="6.63144">
        <ele>2037</ele>
        <time>2019-12-04T12:50:32Z</time>
      </trkpt>
      <trkpt lat="45.3968" lon="6.63146">
        <ele>2036</ele>
        <time>2019-12-04T12:50:34Z</time>
      </trkpt>
      <trkpt lat="45.39686" lon="6.63148">
        <ele>2034</ele>
        <time>2019-12-04T12:50:36Z</time>
      </trkpt>
      <trkpt lat="45.39688" lon="6.63158">
        <ele>2032</ele>
        <time>2019-12-04T12:50:38Z</time>
      </trkpt>
      <trkpt lat="45.39695" lon="6.63162">
        <ele>2030</ele>
        <time>2019-12-04T12:50:40Z</time>
      </trkpt>
      <trkpt lat="45.39703" lon="6.63167">
        <ele>2028</ele>
        <time>2019-12-04T12:50:42Z</time>
      </trkpt>
      <trkpt lat="45.39704" lon="6.63179">
        <ele>2025</ele>
        <time>2019-12-04T12:50:44Z</time>
      </trkpt>
      <trkpt lat="45.39711" lon="6.63184">
        <ele>2022</ele>
        <time>2019-12-04T12:50:46Z</time>
      </trkpt>
      <trkpt lat="45.39716" lon="6.63184">
        <ele>2022</ele>
        <time>2019-12-04T12:50:47Z</time>
      </trkpt>
      <trkpt lat="45.39718" lon="6.6319">
        <ele>2019</ele>
        <time>2019-12-04T12:50:48Z</time>
      </trkpt>
      <trkpt lat="45.3972" lon="6.63196">
        <ele>2019</ele>
        <time>2019-12-04T12:50:49Z</time>
      </trkpt>
      <trkpt lat="45.39724" lon="6.63201">
        <ele>2017</ele>
        <time>2019-12-04T12:50:50Z</time>
      </trkpt>
      <trkpt lat="45.39728" lon="6.63207">
        <ele>2017</ele>
        <time>2019-12-04T12:50:51Z</time>
      </trkpt>
      <trkpt lat="45.39731" lon="6.63214">
        <ele>2016</ele>
        <time>2019-12-04T12:50:52Z</time>
      </trkpt>
      <trkpt lat="45.39735" lon="6.63219">
        <ele>2016</ele>
        <time>2019-12-04T12:50:53Z</time>
      </trkpt>
      <trkpt lat="45.3974" lon="6.6322">
        <ele>2014</ele>
        <time>2019-12-04T12:50:54Z</time>
      </trkpt>
      <trkpt lat="45.39746" lon="6.63241">
        <ele>2010</ele>
        <time>2019-12-04T12:50:57Z</time>
      </trkpt>
      <trkpt lat="45.39752" lon="6.63249">
        <ele>2007</ele>
        <time>2019-12-04T12:50:59Z</time>
      </trkpt>
      <trkpt lat="45.39755" lon="6.63267">
        <ele>2003</ele>
        <time>2019-12-04T12:51:01Z</time>
      </trkpt>
      <trkpt lat="45.39765" lon="6.6328">
        <ele>2000</ele>
        <time>2019-12-04T12:51:03Z</time>
      </trkpt>
      <trkpt lat="45.39767" lon="6.63288">
        <ele>1997</ele>
        <time>2019-12-04T12:51:04Z</time>
      </trkpt>
      <trkpt lat="45.39771" lon="6.63296">
        <ele>1997</ele>
        <time>2019-12-04T12:51:05Z</time>
      </trkpt>
      <trkpt lat="45.39778" lon="6.63305">
        <ele>1995</ele>
        <time>2019-12-04T12:51:07Z</time>
      </trkpt>
      <trkpt lat="45.3978" lon="6.63312">
        <ele>1992</ele>
        <time>2019-12-04T12:51:08Z</time>
      </trkpt>
      <trkpt lat="45.39782" lon="6.63319">
        <ele>1993</ele>
        <time>2019-12-04T12:51:09Z</time>
      </trkpt>
      <trkpt lat="45.39787" lon="6.63322">
        <ele>1990</ele>
        <time>2019-12-04T12:51:11Z</time>
      </trkpt>
      <trkpt lat="45.39792" lon="6.63323">
        <ele>1990</ele>
        <time>2019-12-04T12:51:12Z</time>
      </trkpt>
      <trkpt lat="45.39797" lon="6.63327">
        <ele>1988</ele>
        <time>2019-12-04T12:51:13Z</time>
      </trkpt>
      <trkpt lat="45.39801" lon="6.63333">
        <ele>1986</ele>
        <time>2019-12-04T12:51:14Z</time>
      </trkpt>
      <trkpt lat="45.3981" lon="6.63344">
        <ele>1985</ele>
        <time>2019-12-04T12:51:16Z</time>
      </trkpt>
      <trkpt lat="45.39818" lon="6.63354">
        <ele>1982</ele>
        <time>2019-12-04T12:51:18Z</time>
      </trkpt>
      <trkpt lat="45.39823" lon="6.63359">
        <ele>1982</ele>
        <time>2019-12-04T12:51:19Z</time>
      </trkpt>
      <trkpt lat="45.39836" lon="6.63375">
        <ele>1978</ele>
        <time>2019-12-04T12:51:23Z</time>
      </trkpt>
      <trkpt lat="45.39842" lon="6.63382">
        <ele>1978</ele>
        <time>2019-12-04T12:51:25Z</time>
      </trkpt>
      <trkpt lat="45.39873" lon="6.63427">
        <ele>1967</ele>
        <time>2019-12-04T12:51:35Z</time>
      </trkpt>
      <trkpt lat="45.39886" lon="6.63443">
        <ele>1962</ele>
        <time>2019-12-04T12:51:39Z</time>
      </trkpt>
      <trkpt lat="45.39889" lon="6.63447">
        <ele>1962</ele>
        <time>2019-12-04T12:51:40Z</time>
      </trkpt>
      <trkpt lat="45.39899" lon="6.6346">
        <ele>1959</ele>
        <time>2019-12-04T12:51:43Z</time>
      </trkpt>
      <trkpt lat="45.39906" lon="6.63468">
        <ele>1958</ele>
        <time>2019-12-04T12:51:45Z</time>
      </trkpt>
      <trkpt lat="45.39912" lon="6.63477">
        <ele>1956</ele>
        <time>2019-12-04T12:51:47Z</time>
      </trkpt>
      <trkpt lat="45.39919" lon="6.6348">
        <ele>1954</ele>
        <time>2019-12-04T12:51:49Z</time>
      </trkpt>
      <trkpt lat="45.39924" lon="6.63487">
        <ele>1953</ele>
        <time>2019-12-04T12:51:51Z</time>
      </trkpt>
      <trkpt lat="45.39927" lon="6.63494">
        <ele>1953</ele>
        <time>2019-12-04T12:51:53Z</time>
      </trkpt>
      <trkpt lat="45.39929" lon="6.63503">
        <ele>1952</ele>
        <time>2019-12-04T12:51:55Z</time>
      </trkpt>
      <trkpt lat="45.39926" lon="6.6352">
        <ele>1948</ele>
        <time>2019-12-04T12:51:59Z</time>
      </trkpt>
      <trkpt lat="45.39925" lon="6.63527">
        <ele>1948</ele>
        <time>2019-12-04T12:52:01Z</time>
      </trkpt>
      <trkpt lat="45.39924" lon="6.63533">
        <ele>1949</ele>
        <time>2019-12-04T12:52:03Z</time>
      </trkpt>
      <trkpt lat="45.39925" lon="6.63539">
        <ele>1947</ele>
        <time>2019-12-04T12:52:06Z</time>
      </trkpt>
      <trkpt lat="45.39932" lon="6.63539">
        <ele>1947</ele>
        <time>2019-12-04T12:52:10Z</time>
      </trkpt>
      <trkpt lat="45.39944" lon="6.6354">
        <ele>1943</ele>
        <time>2019-12-04T12:52:15Z</time>
      </trkpt>
      <trkpt lat="45.3995" lon="6.63543">
        <ele>1943</ele>
        <time>2019-12-04T12:52:17Z</time>
      </trkpt>
      <trkpt lat="45.39954" lon="6.63547">
        <ele>1943</ele>
        <time>2019-12-04T12:52:19Z</time>
      </trkpt>
      <trkpt lat="45.39961" lon="6.63549">
        <ele>1941</ele>
        <time>2019-12-04T12:52:23Z</time>
      </trkpt>
      <trkpt lat="45.39966" lon="6.63546">
        <ele>1940</ele>
        <time>2019-12-04T12:52:25Z</time>
      </trkpt>
      <trkpt lat="45.3997" lon="6.63543">
        <ele>1940</ele>
        <time>2019-12-04T12:52:27Z</time>
      </trkpt>
      <trkpt lat="45.39974" lon="6.6355">
        <ele>1940</ele>
        <time>2019-12-04T12:54:26Z</time>
      </trkpt>
      <trkpt lat="45.39977" lon="6.63558">
        <ele>1938</ele>
        <time>2019-12-04T12:54:38Z</time>
      </trkpt>
      <trkpt lat="45.39983" lon="6.63561">
        <ele>1935</ele>
        <time>2019-12-04T12:56:02Z</time>
      </trkpt>
      <trkpt lat="45.39992" lon="6.63564">
        <ele>1934</ele>
        <time>2019-12-04T12:56:15Z</time>
      </trkpt>
      <trkpt lat="45.39998" lon="6.63568">
        <ele>1934</ele>
        <time>2019-12-04T12:56:31Z</time>
      </trkpt>
    </trkseg>
  </trk>
</gpx>